<?xml version='1.0' encoding='UTF-8'?><gpx version="1.1" creator="JPX - https://github.com/jenetics/jpx" xmlns="http://www.topografix.com/GPX/1/1"><trk><trkseg><trkpt lat="-28.1333756" lon="-49.1937009"><ele>253.0</ele><time>2026-04-15T16:29:18.089Z</time></trkpt><trkpt lat="-28.1333174" lon="-49.1937346"><ele>253.0</ele><time>2026-04-15T16:29:37.089Z</time></trkpt><trkpt lat="-28.1332521" lon="-49.1937808"><ele>253.0</ele><time>2026-04-15T16:29:39.089Z</time></trkpt><trkpt lat="-28.1331835" lon="-49.1938178"><ele>253.0</ele><time>2026-04-15T16:29:41.089Z</time></trkpt><trkpt lat="-28.133042" lon="-49.1938516"><ele>253.0</ele><time>2026-04-15T16:29:47.089Z</time></trkpt><trkpt lat="-28.1329626" lon="-49.1938108"><ele>254.75</ele><time>2026-04-15T16:30:00.089Z</time></trkpt><trkpt lat="-28.1329071" lon="-49.1936896"><ele>256.5</ele><time>2026-04-15T16:30:02.089Z</time></trkpt><trkpt lat="-28.1328891" lon="-49.1934964"><ele>258.25</ele><time>2026-04-15T16:30:04.088Z</time></trkpt><trkpt lat="-28.1328912" lon="-49.1933921"><ele>260.0</ele><time>2026-04-15T16:30:05.089Z</time></trkpt><trkpt lat="-28.1328801" lon="-49.1932918"><ele>260.0</ele><time>2026-04-15T16:30:06.089Z</time></trkpt><trkpt lat="-28.1328583" lon="-49.1931987"><ele>260.0</ele><time>2026-04-15T16:30:07.089Z</time></trkpt><trkpt lat="-28.1328164" lon="-49.193123"><ele>260.0</ele><time>2026-04-15T16:30:08.089Z</time></trkpt><trkpt lat="-28.1327615" lon="-49.1930643"><ele>260.0</ele><time>2026-04-15T16:30:09.089Z</time></trkpt><trkpt lat="-28.1326626" lon="-49.1929727"><ele>260.0</ele><time>2026-04-15T16:30:11.089Z</time></trkpt><trkpt lat="-28.1326227" lon="-49.1929158"><ele>260.0</ele><time>2026-04-15T16:30:12.088Z</time></trkpt><trkpt lat="-28.1325779" lon="-49.1928435"><ele>259.75</ele><time>2026-04-15T16:30:13.089Z</time></trkpt><trkpt lat="-28.1325298" lon="-49.1927661"><ele>259.5</ele><time>2026-04-15T16:30:14.089Z</time></trkpt><trkpt lat="-28.1324811" lon="-49.1926969"><ele>259.25</ele><time>2026-04-15T16:30:15.089Z</time></trkpt><trkpt lat="-28.1323707" lon="-49.1924063"><ele>259.0</ele><time>2026-04-15T16:30:19.089Z</time></trkpt><trkpt lat="-28.1323923" lon="-49.1923082"><ele>258.0</ele><time>2026-04-15T16:30:20.089Z</time></trkpt><trkpt lat="-28.1324183" lon="-49.1921869"><ele>257.0</ele><time>2026-04-15T16:30:21.089Z</time></trkpt><trkpt lat="-28.1324495" lon="-49.1920383"><ele>256.0</ele><time>2026-04-15T16:30:22.089Z</time></trkpt><trkpt lat="-28.132483" lon="-49.1918869"><ele>255.0</ele><time>2026-04-15T16:30:23.089Z</time></trkpt><trkpt lat="-28.1325074" lon="-49.1916117"><ele>255.0</ele><time>2026-04-15T16:30:25.089Z</time></trkpt><trkpt lat="-28.1325145" lon="-49.1915102"><ele>255.0</ele><time>2026-04-15T16:30:26.089Z</time></trkpt><trkpt lat="-28.1325134" lon="-49.1914204"><ele>255.0</ele><time>2026-04-15T16:30:27.089Z</time></trkpt><trkpt lat="-28.1325007" lon="-49.1913384"><ele>255.0</ele><time>2026-04-15T16:30:28.089Z</time></trkpt><trkpt lat="-28.1323417" lon="-49.1911583"><ele>254.83333333333334</ele><time>2026-04-15T16:30:31.089Z</time></trkpt><trkpt lat="-28.1322617" lon="-49.1910933"><ele>254.66666666666669</ele><time>2026-04-15T16:30:32.089Z</time></trkpt><trkpt lat="-28.1322167" lon="-49.1910167"><ele>254.5</ele><time>2026-04-15T16:30:33.089Z</time></trkpt><trkpt lat="-28.13217" lon="-49.1909383"><ele>254.33333333333334</ele><time>2026-04-15T16:30:34.089Z</time></trkpt><trkpt lat="-28.1321417" lon="-49.1908533"><ele>254.16666666666669</ele><time>2026-04-15T16:30:35.089Z</time></trkpt><trkpt lat="-28.1321333" lon="-49.1907717"><ele>254.0</ele><time>2026-04-15T16:30:36.088Z</time></trkpt><trkpt lat="-28.1321" lon="-49.19063"><ele>254.00000000000003</ele><time>2026-04-15T16:30:38.089Z</time></trkpt><trkpt lat="-28.13207" lon="-49.1905467"><ele>254.0</ele><time>2026-04-15T16:30:39.089Z</time></trkpt><trkpt lat="-28.1320267" lon="-49.1904717"><ele>254.0</ele><time>2026-04-15T16:30:40.089Z</time></trkpt><trkpt lat="-28.131975" lon="-49.1903917"><ele>254.0</ele><time>2026-04-15T16:30:41.088Z</time></trkpt><trkpt lat="-28.1319117" lon="-49.1903183"><ele>254.00000000000003</ele><time>2026-04-15T16:30:42.089Z</time></trkpt><trkpt lat="-28.1318467" lon="-49.19026"><ele>254.0</ele><time>2026-04-15T16:30:43.089Z</time></trkpt><trkpt lat="-28.13178" lon="-49.190205"><ele>254.0</ele><time>2026-04-15T16:30:44.089Z</time></trkpt><trkpt lat="-28.1316367" lon="-49.1901067"><ele>253.99999999999997</ele><time>2026-04-15T16:30:46.088Z</time></trkpt><trkpt lat="-28.13158" lon="-49.1900583"><ele>253.99999999999997</ele><time>2026-04-15T16:30:47.089Z</time></trkpt><trkpt lat="-28.131505" lon="-49.1899933"><ele>254.0</ele><time>2026-04-15T16:30:48.089Z</time></trkpt><trkpt lat="-28.1314483" lon="-49.1899333"><ele>254.0</ele><time>2026-04-15T16:30:49.089Z</time></trkpt><trkpt lat="-28.131425" lon="-49.1898583"><ele>252.79999999999998</ele><time>2026-04-15T16:30:50.089Z</time></trkpt><trkpt lat="-28.131415" lon="-49.1897867"><ele>251.59999999999997</ele><time>2026-04-15T16:30:51.089Z</time></trkpt><trkpt lat="-28.13147" lon="-49.1896383"><ele>250.4</ele><time>2026-04-15T16:30:53.089Z</time></trkpt><trkpt lat="-28.1315017" lon="-49.1895317"><ele>249.2</ele><time>2026-04-15T16:30:54.089Z</time></trkpt><trkpt lat="-28.1315383" lon="-49.1894167"><ele>248.0</ele><time>2026-04-15T16:30:55.089Z</time></trkpt><trkpt lat="-28.13157" lon="-49.1892917"><ele>248.25</ele><time>2026-04-15T16:30:56.089Z</time></trkpt><trkpt lat="-28.1315867" lon="-49.189165"><ele>248.5</ele><time>2026-04-15T16:30:57.089Z</time></trkpt><trkpt lat="-28.1315867" lon="-49.1890267"><ele>248.75</ele><time>2026-04-15T16:30:58.089Z</time></trkpt><trkpt lat="-28.13158" lon="-49.18889"><ele>249.0</ele><time>2026-04-15T16:30:59.089Z</time></trkpt><trkpt lat="-28.1315733" lon="-49.1887517"><ele>249.0</ele><time>2026-04-15T16:31:00.089Z</time></trkpt><trkpt lat="-28.1315783" lon="-49.1886317"><ele>248.99999999999997</ele><time>2026-04-15T16:31:01.089Z</time></trkpt><trkpt lat="-28.131595" lon="-49.1885233"><ele>248.99999999999997</ele><time>2026-04-15T16:31:02.089Z</time></trkpt><trkpt lat="-28.13164" lon="-49.18841"><ele>249.0</ele><time>2026-04-15T16:31:03.089Z</time></trkpt><trkpt lat="-28.1316967" lon="-49.1883267"><ele>249.0</ele><time>2026-04-15T16:31:04.089Z</time></trkpt><trkpt lat="-28.1317683" lon="-49.188245"><ele>250.75</ele><time>2026-04-15T16:31:05.089Z</time></trkpt><trkpt lat="-28.1319133" lon="-49.18809"><ele>252.5</ele><time>2026-04-15T16:31:07.089Z</time></trkpt><trkpt lat="-28.1319817" lon="-49.188015"><ele>254.25</ele><time>2026-04-15T16:31:08.089Z</time></trkpt><trkpt lat="-28.1320383" lon="-49.1879433"><ele>256.0</ele><time>2026-04-15T16:31:09.089Z</time></trkpt><trkpt lat="-28.1320917" lon="-49.187855"><ele>256.0</ele><time>2026-04-15T16:31:10.089Z</time></trkpt><trkpt lat="-28.1321483" lon="-49.1877533"><ele>256.0</ele><time>2026-04-15T16:31:11.089Z</time></trkpt><trkpt lat="-28.1322117" lon="-49.18765"><ele>256.0</ele><time>2026-04-15T16:31:12.089Z</time></trkpt><trkpt lat="-28.1322767" lon="-49.1875567"><ele>256.0</ele><time>2026-04-15T16:31:13.089Z</time></trkpt><trkpt lat="-28.132325" lon="-49.1874883"><ele>256.0</ele><time>2026-04-15T16:31:14.089Z</time></trkpt><trkpt lat="-28.1323567" lon="-49.1873783"><ele>254.5</ele><time>2026-04-15T16:31:16.089Z</time></trkpt><trkpt lat="-28.132295" lon="-49.1872417"><ele>253.0</ele><time>2026-04-15T16:31:18.089Z</time></trkpt><trkpt lat="-28.1322367" lon="-49.18715"><ele>251.5</ele><time>2026-04-15T16:31:19.088Z</time></trkpt><trkpt lat="-28.132175" lon="-49.18703"><ele>250.0</ele><time>2026-04-15T16:31:20.089Z</time></trkpt><trkpt lat="-28.1321083" lon="-49.1868867"><ele>250.0</ele><time>2026-04-15T16:31:21.089Z</time></trkpt><trkpt lat="-28.13204" lon="-49.1867283"><ele>250.0</ele><time>2026-04-15T16:31:22.089Z</time></trkpt><trkpt lat="-28.1319617" lon="-49.186605"><ele>250.0</ele><time>2026-04-15T16:31:23.088Z</time></trkpt><trkpt lat="-28.1318817" lon="-49.1864867"><ele>250.0</ele><time>2026-04-15T16:31:24.089Z</time></trkpt><trkpt lat="-28.131805" lon="-49.1863817"><ele>247.33333333333331</ele><time>2026-04-15T16:31:25.089Z</time></trkpt><trkpt lat="-28.1317267" lon="-49.186275"><ele>244.66666666666669</ele><time>2026-04-15T16:31:26.089Z</time></trkpt><trkpt lat="-28.131595" lon="-49.1860783"><ele>242.0</ele><time>2026-04-15T16:31:28.088Z</time></trkpt><trkpt lat="-28.1315567" lon="-49.18596"><ele>240.39999999999998</ele><time>2026-04-15T16:31:29.089Z</time></trkpt><trkpt lat="-28.1315283" lon="-49.1858417"><ele>238.79999999999998</ele><time>2026-04-15T16:31:30.089Z</time></trkpt><trkpt lat="-28.1315117" lon="-49.185715"><ele>237.2</ele><time>2026-04-15T16:31:31.088Z</time></trkpt><trkpt lat="-28.1314833" lon="-49.1856017"><ele>235.6</ele><time>2026-04-15T16:31:32.089Z</time></trkpt><trkpt lat="-28.1314583" lon="-49.1855"><ele>234.0</ele><time>2026-04-15T16:31:33.089Z</time></trkpt><trkpt lat="-28.13145" lon="-49.1854083"><ele>234.0</ele><time>2026-04-15T16:31:34.088Z</time></trkpt><trkpt lat="-28.131465" lon="-49.1853183"><ele>234.0</ele><time>2026-04-15T16:31:35.089Z</time></trkpt><trkpt lat="-28.1314933" lon="-49.1852217"><ele>234.0</ele><time>2026-04-15T16:31:36.089Z</time></trkpt><trkpt lat="-28.1315333" lon="-49.1851483"><ele>234.0</ele><time>2026-04-15T16:31:37.089Z</time></trkpt><trkpt lat="-28.131575" lon="-49.1850633"><ele>234.0</ele><time>2026-04-15T16:31:38.089Z</time></trkpt><trkpt lat="-28.131595" lon="-49.1849767"><ele>234.0</ele><time>2026-04-15T16:31:39.089Z</time></trkpt><trkpt lat="-28.1316033" lon="-49.1848783"><ele>236.39999999999998</ele><time>2026-04-15T16:31:40.089Z</time></trkpt><trkpt lat="-28.1315733" lon="-49.184805"><ele>238.79999999999998</ele><time>2026-04-15T16:31:41.089Z</time></trkpt><trkpt lat="-28.13153" lon="-49.18471"><ele>241.20000000000002</ele><time>2026-04-15T16:31:42.089Z</time></trkpt><trkpt lat="-28.131475" lon="-49.1846267"><ele>243.60000000000002</ele><time>2026-04-15T16:31:43.089Z</time></trkpt><trkpt lat="-28.1313767" lon="-49.18455"><ele>246.0</ele><time>2026-04-15T16:31:44.089Z</time></trkpt><trkpt lat="-28.1312867" lon="-49.1844583"><ele>246.0</ele><time>2026-04-15T16:31:45.088Z</time></trkpt><trkpt lat="-28.1311933" lon="-49.1843633"><ele>246.0</ele><time>2026-04-15T16:31:46.089Z</time></trkpt><trkpt lat="-28.1310917" lon="-49.1842817"><ele>246.0</ele><time>2026-04-15T16:31:47.089Z</time></trkpt><trkpt lat="-28.1309033" lon="-49.1841867"><ele>246.0</ele><time>2026-04-15T16:31:49.089Z</time></trkpt><trkpt lat="-28.1308017" lon="-49.184145"><ele>246.0</ele><time>2026-04-15T16:31:50.089Z</time></trkpt><trkpt lat="-28.130695" lon="-49.1841033"><ele>246.0</ele><time>2026-04-15T16:31:51.089Z</time></trkpt><trkpt lat="-28.1305833" lon="-49.1840383"><ele>246.0</ele><time>2026-04-15T16:31:52.089Z</time></trkpt><trkpt lat="-28.130485" lon="-49.1839517"><ele>246.66666666666669</ele><time>2026-04-15T16:31:53.089Z</time></trkpt><trkpt lat="-28.130395" lon="-49.1838417"><ele>247.33333333333334</ele><time>2026-04-15T16:31:54.089Z</time></trkpt><trkpt lat="-28.1302183" lon="-49.1835883"><ele>248.0</ele><time>2026-04-15T16:31:56.089Z</time></trkpt><trkpt lat="-28.1301183" lon="-49.18348"><ele>248.0</ele><time>2026-04-15T16:31:57.089Z</time></trkpt><trkpt lat="-28.1300067" lon="-49.183375"><ele>248.0</ele><time>2026-04-15T16:31:58.089Z</time></trkpt><trkpt lat="-28.1298833" lon="-49.183295"><ele>248.0</ele><time>2026-04-15T16:31:59.089Z</time></trkpt><trkpt lat="-28.129755" lon="-49.18324"><ele>248.0</ele><time>2026-04-15T16:32:00.089Z</time></trkpt><trkpt lat="-28.1295933" lon="-49.1832133"><ele>248.66666666666669</ele><time>2026-04-15T16:32:01.089Z</time></trkpt><trkpt lat="-28.12944" lon="-49.1831833"><ele>249.33333333333331</ele><time>2026-04-15T16:32:02.088Z</time></trkpt><trkpt lat="-28.1292767" lon="-49.1831417"><ele>250.0</ele><time>2026-04-15T16:32:03.089Z</time></trkpt><trkpt lat="-28.12912" lon="-49.1831"><ele>245.75</ele><time>2026-04-15T16:32:04.089Z</time></trkpt><trkpt lat="-28.12898" lon="-49.1830517"><ele>241.5</ele><time>2026-04-15T16:32:05.089Z</time></trkpt><trkpt lat="-28.1288533" lon="-49.1829867"><ele>237.25</ele><time>2026-04-15T16:32:06.088Z</time></trkpt><trkpt lat="-28.1287533" lon="-49.1829133"><ele>233.0</ele><time>2026-04-15T16:32:07.089Z</time></trkpt><trkpt lat="-28.1286567" lon="-49.182845"><ele>233.0</ele><time>2026-04-15T16:32:08.089Z</time></trkpt><trkpt lat="-28.1285133" lon="-49.1826783"><ele>233.0</ele><time>2026-04-15T16:32:10.089Z</time></trkpt><trkpt lat="-28.12845" lon="-49.18258"><ele>233.0</ele><time>2026-04-15T16:32:11.089Z</time></trkpt><trkpt lat="-28.1284067" lon="-49.1824717"><ele>233.0</ele><time>2026-04-15T16:32:12.088Z</time></trkpt><trkpt lat="-28.1283683" lon="-49.1823467"><ele>234.25</ele><time>2026-04-15T16:32:13.089Z</time></trkpt><trkpt lat="-28.128345" lon="-49.1822167"><ele>235.5</ele><time>2026-04-15T16:32:14.088Z</time></trkpt><trkpt lat="-28.12835" lon="-49.182095"><ele>236.75</ele><time>2026-04-15T16:32:15.089Z</time></trkpt><trkpt lat="-28.1283683" lon="-49.1819433"><ele>238.0</ele><time>2026-04-15T16:32:16.088Z</time></trkpt><trkpt lat="-28.1283983" lon="-49.1817817"><ele>238.0</ele><time>2026-04-15T16:32:17.089Z</time></trkpt><trkpt lat="-28.12843" lon="-49.1816083"><ele>238.0</ele><time>2026-04-15T16:32:18.089Z</time></trkpt><trkpt lat="-28.1284667" lon="-49.1814317"><ele>238.0</ele><time>2026-04-15T16:32:19.089Z</time></trkpt><trkpt lat="-28.1285" lon="-49.18126"><ele>239.25</ele><time>2026-04-15T16:32:20.089Z</time></trkpt><trkpt lat="-28.1285233" lon="-49.1810733"><ele>240.5</ele><time>2026-04-15T16:32:21.089Z</time></trkpt><trkpt lat="-28.1285517" lon="-49.1809217"><ele>241.75</ele><time>2026-04-15T16:32:22.089Z</time></trkpt><trkpt lat="-28.1285617" lon="-49.1807817"><ele>243.0</ele><time>2026-04-15T16:32:23.089Z</time></trkpt><trkpt lat="-28.1285683" lon="-49.1806567"><ele>241.33333333333334</ele><time>2026-04-15T16:32:24.089Z</time></trkpt><trkpt lat="-28.1285733" lon="-49.180545"><ele>239.66666666666669</ele><time>2026-04-15T16:32:25.088Z</time></trkpt><trkpt lat="-28.128575" lon="-49.1804467"><ele>238.0</ele><time>2026-04-15T16:32:26.089Z</time></trkpt><trkpt lat="-28.128575" lon="-49.1803683"><ele>236.33333333333334</ele><time>2026-04-15T16:32:27.088Z</time></trkpt><trkpt lat="-28.1285733" lon="-49.180295"><ele>234.66666666666669</ele><time>2026-04-15T16:32:28.088Z</time></trkpt><trkpt lat="-28.1285417" lon="-49.1801783"><ele>233.0</ele><time>2026-04-15T16:32:30.089Z</time></trkpt><trkpt lat="-28.1283817" lon="-49.1800833"><ele>233.0</ele><time>2026-04-15T16:32:33.089Z</time></trkpt><trkpt lat="-28.1282967" lon="-49.180065"><ele>233.0</ele><time>2026-04-15T16:32:34.089Z</time></trkpt><trkpt lat="-28.1281767" lon="-49.180045"><ele>233.0</ele><time>2026-04-15T16:32:35.089Z</time></trkpt><trkpt lat="-28.128025" lon="-49.1800433"><ele>233.0</ele><time>2026-04-15T16:32:36.089Z</time></trkpt><trkpt lat="-28.12788" lon="-49.1800367"><ele>234.5</ele><time>2026-04-15T16:32:37.089Z</time></trkpt><trkpt lat="-28.127755" lon="-49.18005"><ele>236.0</ele><time>2026-04-15T16:32:38.089Z</time></trkpt><trkpt lat="-28.12764" lon="-49.1800417"><ele>237.5</ele><time>2026-04-15T16:32:39.088Z</time></trkpt><trkpt lat="-28.12753" lon="-49.180005"><ele>239.0</ele><time>2026-04-15T16:32:40.088Z</time></trkpt><trkpt lat="-28.1274067" lon="-49.1799383"><ele>240.66666666666669</ele><time>2026-04-15T16:32:41.089Z</time></trkpt><trkpt lat="-28.12727" lon="-49.179865"><ele>242.33333333333331</ele><time>2026-04-15T16:32:42.089Z</time></trkpt><trkpt lat="-28.127125" lon="-49.17981"><ele>244.0</ele><time>2026-04-15T16:32:43.089Z</time></trkpt><trkpt lat="-28.1269767" lon="-49.1797683"><ele>239.0</ele><time>2026-04-15T16:32:44.089Z</time></trkpt><trkpt lat="-28.1268367" lon="-49.1797367"><ele>234.0</ele><time>2026-04-15T16:32:45.089Z</time></trkpt><trkpt lat="-28.1267083" lon="-49.17967"><ele>229.0</ele><time>2026-04-15T16:32:46.089Z</time></trkpt><trkpt lat="-28.1265967" lon="-49.1796017"><ele>224.0</ele><time>2026-04-15T16:32:47.089Z</time></trkpt><trkpt lat="-28.1265" lon="-49.1795467"><ele>222.39999999999998</ele><time>2026-04-15T16:32:48.089Z</time></trkpt><trkpt lat="-28.12642" lon="-49.179505"><ele>220.79999999999998</ele><time>2026-04-15T16:32:49.089Z</time></trkpt><trkpt lat="-28.126345" lon="-49.1794767"><ele>219.20000000000002</ele><time>2026-04-15T16:32:50.088Z</time></trkpt><trkpt lat="-28.12627" lon="-49.179475"><ele>217.60000000000002</ele><time>2026-04-15T16:32:51.089Z</time></trkpt><trkpt lat="-28.1260817" lon="-49.1795"><ele>216.0</ele><time>2026-04-15T16:32:53.089Z</time></trkpt><trkpt lat="-28.125975" lon="-49.1795367"><ele>216.0</ele><time>2026-04-15T16:32:54.089Z</time></trkpt><trkpt lat="-28.12586" lon="-49.1795667"><ele>216.00000000000003</ele><time>2026-04-15T16:32:55.088Z</time></trkpt><trkpt lat="-28.125745" lon="-49.1795783"><ele>216.00000000000003</ele><time>2026-04-15T16:32:56.089Z</time></trkpt><trkpt lat="-28.125645" lon="-49.179595"><ele>216.0</ele><time>2026-04-15T16:32:57.088Z</time></trkpt><trkpt lat="-28.12556" lon="-49.1796117"><ele>216.0</ele><time>2026-04-15T16:32:58.089Z</time></trkpt><trkpt lat="-28.1254883" lon="-49.1796217"><ele>216.16666666666666</ele><time>2026-04-15T16:32:59.089Z</time></trkpt><trkpt lat="-28.1254117" lon="-49.1796183"><ele>216.33333333333331</ele><time>2026-04-15T16:33:00.089Z</time></trkpt><trkpt lat="-28.1253333" lon="-49.17959"><ele>216.5</ele><time>2026-04-15T16:33:01.089Z</time></trkpt><trkpt lat="-28.12526" lon="-49.1795417"><ele>216.66666666666666</ele><time>2026-04-15T16:33:02.089Z</time></trkpt><trkpt lat="-28.1251883" lon="-49.17947"><ele>216.83333333333331</ele><time>2026-04-15T16:33:03.089Z</time></trkpt><trkpt lat="-28.1251217" lon="-49.17939"><ele>217.0</ele><time>2026-04-15T16:33:04.089Z</time></trkpt><trkpt lat="-28.1250583" lon="-49.17931"><ele>216.99999999999997</ele><time>2026-04-15T16:33:05.088Z</time></trkpt><trkpt lat="-28.125" lon="-49.1792433"><ele>217.0</ele><time>2026-04-15T16:33:06.088Z</time></trkpt><trkpt lat="-28.12494" lon="-49.179185"><ele>217.0</ele><time>2026-04-15T16:33:07.089Z</time></trkpt><trkpt lat="-28.1248867" lon="-49.1791133"><ele>217.0</ele><time>2026-04-15T16:33:08.088Z</time></trkpt><trkpt lat="-28.1248567" lon="-49.179025"><ele>216.99999999999997</ele><time>2026-04-15T16:33:09.089Z</time></trkpt><trkpt lat="-28.1248467" lon="-49.1789183"><ele>217.0</ele><time>2026-04-15T16:33:10.089Z</time></trkpt><trkpt lat="-28.1248717" lon="-49.1788133"><ele>216.2</ele><time>2026-04-15T16:33:11.089Z</time></trkpt><trkpt lat="-28.1248983" lon="-49.1787217"><ele>215.39999999999998</ele><time>2026-04-15T16:33:12.089Z</time></trkpt><trkpt lat="-28.124905" lon="-49.17854"><ele>214.60000000000002</ele><time>2026-04-15T16:33:14.089Z</time></trkpt><trkpt lat="-28.124875" lon="-49.1784583"><ele>213.8</ele><time>2026-04-15T16:33:15.089Z</time></trkpt><trkpt lat="-28.1248467" lon="-49.1783783"><ele>213.0</ele><time>2026-04-15T16:33:16.089Z</time></trkpt><trkpt lat="-28.124815" lon="-49.17828"><ele>214.33333333333334</ele><time>2026-04-15T16:33:17.089Z</time></trkpt><trkpt lat="-28.1248017" lon="-49.1781717"><ele>215.66666666666669</ele><time>2026-04-15T16:33:18.089Z</time></trkpt><trkpt lat="-28.1248067" lon="-49.1780633"><ele>217.0</ele><time>2026-04-15T16:33:19.089Z</time></trkpt><trkpt lat="-28.1248067" lon="-49.17797"><ele>218.33333333333334</ele><time>2026-04-15T16:33:20.089Z</time></trkpt><trkpt lat="-28.124805" lon="-49.1778733"><ele>219.66666666666669</ele><time>2026-04-15T16:33:21.089Z</time></trkpt><trkpt lat="-28.1247983" lon="-49.1777883"><ele>221.0</ele><time>2026-04-15T16:33:22.088Z</time></trkpt><trkpt lat="-28.1247817" lon="-49.1777017"><ele>221.0</ele><time>2026-04-15T16:33:23.089Z</time></trkpt><trkpt lat="-28.1247483" lon="-49.1776233"><ele>221.00000000000003</ele><time>2026-04-15T16:33:24.089Z</time></trkpt><trkpt lat="-28.124695" lon="-49.1775333"><ele>221.00000000000003</ele><time>2026-04-15T16:33:25.089Z</time></trkpt><trkpt lat="-28.1246283" lon="-49.1774383"><ele>221.0</ele><time>2026-04-15T16:33:26.089Z</time></trkpt><trkpt lat="-28.1245633" lon="-49.17734"><ele>221.0</ele><time>2026-04-15T16:33:27.089Z</time></trkpt><trkpt lat="-28.124505" lon="-49.17726"><ele>219.66666666666669</ele><time>2026-04-15T16:33:28.089Z</time></trkpt><trkpt lat="-28.12444" lon="-49.1771917"><ele>218.33333333333334</ele><time>2026-04-15T16:33:29.089Z</time></trkpt><trkpt lat="-28.1243817" lon="-49.17713"><ele>217.0</ele><time>2026-04-15T16:33:30.089Z</time></trkpt><trkpt lat="-28.124315" lon="-49.1770867"><ele>215.66666666666669</ele><time>2026-04-15T16:33:31.089Z</time></trkpt><trkpt lat="-28.1242533" lon="-49.177055"><ele>214.33333333333334</ele><time>2026-04-15T16:33:32.089Z</time></trkpt><trkpt lat="-28.1241867" lon="-49.177055"><ele>213.0</ele><time>2026-04-15T16:33:33.089Z</time></trkpt><trkpt lat="-28.1240383" lon="-49.1771033"><ele>213.0</ele><time>2026-04-15T16:33:35.089Z</time></trkpt><trkpt lat="-28.1239433" lon="-49.177155"><ele>213.0</ele><time>2026-04-15T16:33:36.089Z</time></trkpt><trkpt lat="-28.123835" lon="-49.1771917"><ele>213.0</ele><time>2026-04-15T16:33:37.089Z</time></trkpt><trkpt lat="-28.123715" lon="-49.17721"><ele>213.0</ele><time>2026-04-15T16:33:38.089Z</time></trkpt><trkpt lat="-28.1235833" lon="-49.1772017"><ele>213.0</ele><time>2026-04-15T16:33:39.089Z</time></trkpt><trkpt lat="-28.1234517" lon="-49.177175"><ele>213.0</ele><time>2026-04-15T16:33:40.089Z</time></trkpt><trkpt lat="-28.12332" lon="-49.1771467"><ele>213.0</ele><time>2026-04-15T16:33:41.089Z</time></trkpt><trkpt lat="-28.123195" lon="-49.1771233"><ele>213.0</ele><time>2026-04-15T16:33:42.089Z</time></trkpt><trkpt lat="-28.12308" lon="-49.177085"><ele>213.83333333333334</ele><time>2026-04-15T16:33:43.089Z</time></trkpt><trkpt lat="-28.1229967" lon="-49.1770333"><ele>214.66666666666669</ele><time>2026-04-15T16:33:44.089Z</time></trkpt><trkpt lat="-28.1229317" lon="-49.1769667"><ele>215.5</ele><time>2026-04-15T16:33:45.089Z</time></trkpt><trkpt lat="-28.1228933" lon="-49.176895"><ele>216.33333333333334</ele><time>2026-04-15T16:33:46.089Z</time></trkpt><trkpt lat="-28.1228583" lon="-49.1768167"><ele>217.16666666666669</ele><time>2026-04-15T16:33:47.089Z</time></trkpt><trkpt lat="-28.122835" lon="-49.1767417"><ele>218.0</ele><time>2026-04-15T16:33:48.088Z</time></trkpt><trkpt lat="-28.1227767" lon="-49.1766283"><ele>218.0</ele><time>2026-04-15T16:33:50.089Z</time></trkpt><trkpt lat="-28.1226883" lon="-49.1765683"><ele>218.0</ele><time>2026-04-15T16:33:52.089Z</time></trkpt><trkpt lat="-28.122625" lon="-49.1765783"><ele>218.0</ele><time>2026-04-15T16:33:53.089Z</time></trkpt><trkpt lat="-28.1225517" lon="-49.1766217"><ele>218.0</ele><time>2026-04-15T16:33:54.089Z</time></trkpt><trkpt lat="-28.12233" lon="-49.1767767"><ele>215.33333333333334</ele><time>2026-04-15T16:33:56.089Z</time></trkpt><trkpt lat="-28.12218" lon="-49.17689"><ele>212.66666666666669</ele><time>2026-04-15T16:33:57.088Z</time></trkpt><trkpt lat="-28.122025" lon="-49.1769933"><ele>210.0</ele><time>2026-04-15T16:33:58.089Z</time></trkpt><trkpt lat="-28.1218733" lon="-49.17706"><ele>210.0</ele><time>2026-04-15T16:33:59.089Z</time></trkpt><trkpt lat="-28.121715" lon="-49.1771017"><ele>210.0</ele><time>2026-04-15T16:34:00.089Z</time></trkpt><trkpt lat="-28.1215583" lon="-49.177145"><ele>210.0</ele><time>2026-04-15T16:34:01.089Z</time></trkpt><trkpt lat="-28.12142" lon="-49.177195"><ele>209.5</ele><time>2026-04-15T16:34:02.088Z</time></trkpt><trkpt lat="-28.1212883" lon="-49.17724"><ele>209.0</ele><time>2026-04-15T16:34:03.089Z</time></trkpt><trkpt lat="-28.1211683" lon="-49.1772883"><ele>208.5</ele><time>2026-04-15T16:34:04.088Z</time></trkpt><trkpt lat="-28.12105" lon="-49.1773333"><ele>208.0</ele><time>2026-04-15T16:34:05.089Z</time></trkpt><trkpt lat="-28.1209383" lon="-49.17738"><ele>206.0</ele><time>2026-04-15T16:34:06.088Z</time></trkpt><trkpt lat="-28.1208383" lon="-49.1774367"><ele>204.0</ele><time>2026-04-15T16:34:07.089Z</time></trkpt><trkpt lat="-28.1207333" lon="-49.1775183"><ele>202.0</ele><time>2026-04-15T16:34:08.089Z</time></trkpt><trkpt lat="-28.1206383" lon="-49.177595"><ele>200.0</ele><time>2026-04-15T16:34:09.089Z</time></trkpt><trkpt lat="-28.1205533" lon="-49.1776683"><ele>199.6</ele><time>2026-04-15T16:34:10.089Z</time></trkpt><trkpt lat="-28.1204633" lon="-49.177725"><ele>199.2</ele><time>2026-04-15T16:34:11.089Z</time></trkpt><trkpt lat="-28.120365" lon="-49.1777583"><ele>198.8</ele><time>2026-04-15T16:34:12.089Z</time></trkpt><trkpt lat="-28.1202617" lon="-49.1777783"><ele>198.4</ele><time>2026-04-15T16:34:13.088Z</time></trkpt><trkpt lat="-28.1201533" lon="-49.1777883"><ele>198.0</ele><time>2026-04-15T16:34:14.089Z</time></trkpt><trkpt lat="-28.1200433" lon="-49.177805"><ele>199.75</ele><time>2026-04-15T16:34:15.089Z</time></trkpt><trkpt lat="-28.1198233" lon="-49.1778083"><ele>201.5</ele><time>2026-04-15T16:34:17.089Z</time></trkpt><trkpt lat="-28.1197267" lon="-49.1778"><ele>203.25</ele><time>2026-04-15T16:34:18.089Z</time></trkpt><trkpt lat="-28.11964" lon="-49.1777617"><ele>205.0</ele><time>2026-04-15T16:34:19.089Z</time></trkpt><trkpt lat="-28.11957" lon="-49.17771"><ele>205.0</ele><time>2026-04-15T16:34:20.089Z</time></trkpt><trkpt lat="-28.1195133" lon="-49.1776367"><ele>205.0</ele><time>2026-04-15T16:34:21.089Z</time></trkpt><trkpt lat="-28.1194883" lon="-49.17755"><ele>205.0</ele><time>2026-04-15T16:34:22.089Z</time></trkpt><trkpt lat="-28.1194833" lon="-49.1774517"><ele>205.0</ele><time>2026-04-15T16:34:23.088Z</time></trkpt><trkpt lat="-28.11951" lon="-49.1773317"><ele>205.0</ele><time>2026-04-15T16:34:24.088Z</time></trkpt><trkpt lat="-28.11957" lon="-49.1771883"><ele>205.25</ele><time>2026-04-15T16:34:25.089Z</time></trkpt><trkpt lat="-28.11961" lon="-49.1770383"><ele>205.5</ele><time>2026-04-15T16:34:26.089Z</time></trkpt><trkpt lat="-28.11962" lon="-49.1768817"><ele>205.75</ele><time>2026-04-15T16:34:27.089Z</time></trkpt><trkpt lat="-28.1196167" lon="-49.1767433"><ele>206.0</ele><time>2026-04-15T16:34:28.089Z</time></trkpt><trkpt lat="-28.1195817" lon="-49.1765817"><ele>205.5</ele><time>2026-04-15T16:34:29.089Z</time></trkpt><trkpt lat="-28.1195367" lon="-49.1764333"><ele>205.0</ele><time>2026-04-15T16:34:30.089Z</time></trkpt><trkpt lat="-28.1195017" lon="-49.176295"><ele>204.5</ele><time>2026-04-15T16:34:31.088Z</time></trkpt><trkpt lat="-28.1194767" lon="-49.17616"><ele>204.0</ele><time>2026-04-15T16:34:32.089Z</time></trkpt><trkpt lat="-28.1194567" lon="-49.1760383"><ele>204.0</ele><time>2026-04-15T16:34:33.088Z</time></trkpt><trkpt lat="-28.1194367" lon="-49.1759383"><ele>204.0</ele><time>2026-04-15T16:34:34.089Z</time></trkpt><trkpt lat="-28.1193967" lon="-49.1758567"><ele>204.0</ele><time>2026-04-15T16:34:35.089Z</time></trkpt><trkpt lat="-28.11934" lon="-49.17578"><ele>204.0</ele><time>2026-04-15T16:34:36.089Z</time></trkpt><trkpt lat="-28.11919" lon="-49.1756517"><ele>204.0</ele><time>2026-04-15T16:34:38.089Z</time></trkpt><trkpt lat="-28.1190933" lon="-49.1756133"><ele>204.75</ele><time>2026-04-15T16:34:39.089Z</time></trkpt><trkpt lat="-28.1189783" lon="-49.17557"><ele>205.5</ele><time>2026-04-15T16:34:40.088Z</time></trkpt><trkpt lat="-28.1188717" lon="-49.1755117"><ele>206.25</ele><time>2026-04-15T16:34:41.088Z</time></trkpt><trkpt lat="-28.1187733" lon="-49.1754317"><ele>207.0</ele><time>2026-04-15T16:34:42.089Z</time></trkpt><trkpt lat="-28.118685" lon="-49.1753517"><ele>207.0</ele><time>2026-04-15T16:34:43.089Z</time></trkpt><trkpt lat="-28.1186217" lon="-49.1752817"><ele>207.0</ele><time>2026-04-15T16:34:44.089Z</time></trkpt><trkpt lat="-28.1185783" lon="-49.1752083"><ele>207.0</ele><time>2026-04-15T16:34:45.088Z</time></trkpt><trkpt lat="-28.1185567" lon="-49.175125"><ele>207.0</ele><time>2026-04-15T16:34:46.089Z</time></trkpt><trkpt lat="-28.118535" lon="-49.17502"><ele>207.0</ele><time>2026-04-15T16:34:47.089Z</time></trkpt><trkpt lat="-28.1185017" lon="-49.1748783"><ele>209.0</ele><time>2026-04-15T16:34:48.089Z</time></trkpt><trkpt lat="-28.1184633" lon="-49.1747267"><ele>211.0</ele><time>2026-04-15T16:34:49.089Z</time></trkpt><trkpt lat="-28.118435" lon="-49.174575"><ele>213.0</ele><time>2026-04-15T16:34:50.089Z</time></trkpt><trkpt lat="-28.118435" lon="-49.1744383"><ele>215.0</ele><time>2026-04-15T16:34:51.089Z</time></trkpt><trkpt lat="-28.1184633" lon="-49.1743133"><ele>215.0</ele><time>2026-04-15T16:34:52.089Z</time></trkpt><trkpt lat="-28.118505" lon="-49.174205"><ele>215.0</ele><time>2026-04-15T16:34:53.089Z</time></trkpt><trkpt lat="-28.1185683" lon="-49.1741233"><ele>215.0</ele><time>2026-04-15T16:34:54.089Z</time></trkpt><trkpt lat="-28.1186367" lon="-49.1740683"><ele>215.0</ele><time>2026-04-15T16:34:55.089Z</time></trkpt><trkpt lat="-28.11872" lon="-49.17404"><ele>215.0</ele><time>2026-04-15T16:34:56.089Z</time></trkpt><trkpt lat="-28.118825" lon="-49.17403"><ele>215.0</ele><time>2026-04-15T16:34:57.089Z</time></trkpt><trkpt lat="-28.11901" lon="-49.1740267"><ele>215.0</ele><time>2026-04-15T16:34:59.089Z</time></trkpt><trkpt lat="-28.11909" lon="-49.174005"><ele>215.0</ele><time>2026-04-15T16:35:00.088Z</time></trkpt><trkpt lat="-28.1191567" lon="-49.173955"><ele>215.0</ele><time>2026-04-15T16:35:01.089Z</time></trkpt><trkpt lat="-28.119215" lon="-49.1738933"><ele>215.0</ele><time>2026-04-15T16:35:02.089Z</time></trkpt><trkpt lat="-28.1192717" lon="-49.173815"><ele>214.00000000000003</ele><time>2026-04-15T16:35:03.089Z</time></trkpt><trkpt lat="-28.1193217" lon="-49.1737517"><ele>213.0</ele><time>2026-04-15T16:35:04.089Z</time></trkpt><trkpt lat="-28.119375" lon="-49.173685"><ele>212.0</ele><time>2026-04-15T16:35:05.089Z</time></trkpt><trkpt lat="-28.1194283" lon="-49.1736133"><ele>211.0</ele><time>2026-04-15T16:35:06.089Z</time></trkpt><trkpt lat="-28.1194783" lon="-49.17355"><ele>210.00000000000003</ele><time>2026-04-15T16:35:07.089Z</time></trkpt><trkpt lat="-28.119515" lon="-49.1734783"><ele>209.0</ele><time>2026-04-15T16:35:08.089Z</time></trkpt><trkpt lat="-28.1195283" lon="-49.1733567"><ele>209.00000000000003</ele><time>2026-04-15T16:35:10.089Z</time></trkpt><trkpt lat="-28.1195017" lon="-49.17329"><ele>209.0</ele><time>2026-04-15T16:35:11.089Z</time></trkpt><trkpt lat="-28.1194583" lon="-49.1732333"><ele>209.0</ele><time>2026-04-15T16:35:12.089Z</time></trkpt><trkpt lat="-28.119395" lon="-49.1731833"><ele>209.0</ele><time>2026-04-15T16:35:13.089Z</time></trkpt><trkpt lat="-28.11931" lon="-49.1731533"><ele>209.00000000000003</ele><time>2026-04-15T16:35:14.089Z</time></trkpt><trkpt lat="-28.1192083" lon="-49.1731267"><ele>209.0</ele><time>2026-04-15T16:35:15.089Z</time></trkpt><trkpt lat="-28.1190883" lon="-49.17311"><ele>209.66666666666669</ele><time>2026-04-15T16:35:16.088Z</time></trkpt><trkpt lat="-28.1189733" lon="-49.1730667"><ele>210.33333333333331</ele><time>2026-04-15T16:35:17.089Z</time></trkpt><trkpt lat="-28.1188733" lon="-49.173"><ele>211.0</ele><time>2026-04-15T16:35:18.089Z</time></trkpt><trkpt lat="-28.11872" lon="-49.1727967"><ele>211.0</ele><time>2026-04-15T16:35:20.089Z</time></trkpt><trkpt lat="-28.1186617" lon="-49.1726867"><ele>211.0</ele><time>2026-04-15T16:35:21.089Z</time></trkpt><trkpt lat="-28.1185933" lon="-49.1725817"><ele>211.0</ele><time>2026-04-15T16:35:22.089Z</time></trkpt><trkpt lat="-28.118515" lon="-49.17249"><ele>211.0</ele><time>2026-04-15T16:35:23.089Z</time></trkpt><trkpt lat="-28.11842" lon="-49.1724"><ele>209.0</ele><time>2026-04-15T16:35:24.088Z</time></trkpt><trkpt lat="-28.1183217" lon="-49.1723183"><ele>207.0</ele><time>2026-04-15T16:35:25.089Z</time></trkpt><trkpt lat="-28.118235" lon="-49.17224"><ele>205.0</ele><time>2026-04-15T16:35:26.089Z</time></trkpt><trkpt lat="-28.1181633" lon="-49.172155"><ele>203.0</ele><time>2026-04-15T16:35:27.089Z</time></trkpt><trkpt lat="-28.1181183" lon="-49.172065"><ele>201.0</ele><time>2026-04-15T16:35:28.089Z</time></trkpt><trkpt lat="-28.1180867" lon="-49.1719467"><ele>200.8</ele><time>2026-04-15T16:35:29.089Z</time></trkpt><trkpt lat="-28.1180483" lon="-49.1718317"><ele>200.60000000000002</ele><time>2026-04-15T16:35:30.089Z</time></trkpt><trkpt lat="-28.1180083" lon="-49.1717283"><ele>200.4</ele><time>2026-04-15T16:35:31.089Z</time></trkpt><trkpt lat="-28.1179617" lon="-49.1716317"><ele>200.2</ele><time>2026-04-15T16:35:32.089Z</time></trkpt><trkpt lat="-28.11791" lon="-49.1715233"><ele>200.0</ele><time>2026-04-15T16:35:33.089Z</time></trkpt><trkpt lat="-28.1178533" lon="-49.171405"><ele>197.5</ele><time>2026-04-15T16:35:34.089Z</time></trkpt><trkpt lat="-28.1177917" lon="-49.1712683"><ele>195.0</ele><time>2026-04-15T16:35:35.089Z</time></trkpt><trkpt lat="-28.1177217" lon="-49.1711333"><ele>192.5</ele><time>2026-04-15T16:35:36.089Z</time></trkpt><trkpt lat="-28.117655" lon="-49.171005"><ele>190.0</ele><time>2026-04-15T16:35:37.088Z</time></trkpt><trkpt lat="-28.117585" lon="-49.1708817"><ele>190.0</ele><time>2026-04-15T16:35:38.089Z</time></trkpt><trkpt lat="-28.117525" lon="-49.1707567"><ele>190.0</ele><time>2026-04-15T16:35:39.089Z</time></trkpt><trkpt lat="-28.1173967" lon="-49.1705267"><ele>190.0</ele><time>2026-04-15T16:35:41.089Z</time></trkpt><trkpt lat="-28.117325" lon="-49.1704283"><ele>191.16666666666669</ele><time>2026-04-15T16:35:42.088Z</time></trkpt><trkpt lat="-28.11727" lon="-49.170335"><ele>192.33333333333334</ele><time>2026-04-15T16:35:43.089Z</time></trkpt><trkpt lat="-28.1172333" lon="-49.17024"><ele>193.5</ele><time>2026-04-15T16:35:44.089Z</time></trkpt><trkpt lat="-28.1172117" lon="-49.1701467"><ele>194.66666666666669</ele><time>2026-04-15T16:35:45.089Z</time></trkpt><trkpt lat="-28.117205" lon="-49.17005"><ele>195.83333333333334</ele><time>2026-04-15T16:35:46.088Z</time></trkpt><trkpt lat="-28.1172133" lon="-49.1699583"><ele>197.0</ele><time>2026-04-15T16:35:47.089Z</time></trkpt><trkpt lat="-28.1172217" lon="-49.1698817"><ele>200.0</ele><time>2026-04-15T16:35:48.089Z</time></trkpt><trkpt lat="-28.117225" lon="-49.1698083"><ele>203.0</ele><time>2026-04-15T16:35:49.089Z</time></trkpt><trkpt lat="-28.1171867" lon="-49.1696833"><ele>206.0</ele><time>2026-04-15T16:35:51.088Z</time></trkpt><trkpt lat="-28.11705" lon="-49.1696117"><ele>209.0</ele><time>2026-04-15T16:35:53.089Z</time></trkpt><trkpt lat="-28.1169633" lon="-49.1696033"><ele>212.0</ele><time>2026-04-15T16:35:54.089Z</time></trkpt><trkpt lat="-28.1168617" lon="-49.1696117"><ele>212.0</ele><time>2026-04-15T16:35:55.088Z</time></trkpt><trkpt lat="-28.1167317" lon="-49.169675"><ele>212.0</ele><time>2026-04-15T16:35:56.089Z</time></trkpt><trkpt lat="-28.116585" lon="-49.1697517"><ele>212.0</ele><time>2026-04-15T16:35:57.089Z</time></trkpt><trkpt lat="-28.1164517" lon="-49.1697933"><ele>212.0</ele><time>2026-04-15T16:35:58.089Z</time></trkpt><trkpt lat="-28.1163483" lon="-49.1698083"><ele>207.5</ele><time>2026-04-15T16:35:59.089Z</time></trkpt><trkpt lat="-28.1162683" lon="-49.1698067"><ele>203.0</ele><time>2026-04-15T16:36:00.088Z</time></trkpt><trkpt lat="-28.1161" lon="-49.1697667"><ele>198.5</ele><time>2026-04-15T16:36:02.088Z</time></trkpt><trkpt lat="-28.1159867" lon="-49.1697117"><ele>194.0</ele><time>2026-04-15T16:36:03.088Z</time></trkpt><trkpt lat="-28.1158767" lon="-49.169645"><ele>194.0</ele><time>2026-04-15T16:36:04.088Z</time></trkpt><trkpt lat="-28.1157617" lon="-49.169575"><ele>194.0</ele><time>2026-04-15T16:36:05.088Z</time></trkpt><trkpt lat="-28.115655" lon="-49.1695067"><ele>194.0</ele><time>2026-04-15T16:36:06.088Z</time></trkpt><trkpt lat="-28.1155517" lon="-49.1694467"><ele>194.0</ele><time>2026-04-15T16:36:07.087Z</time></trkpt><trkpt lat="-28.11545" lon="-49.1693933"><ele>193.39999999999998</ele><time>2026-04-15T16:36:08.088Z</time></trkpt><trkpt lat="-28.1153517" lon="-49.1693417"><ele>192.8</ele><time>2026-04-15T16:36:09.088Z</time></trkpt><trkpt lat="-28.1152617" lon="-49.1692917"><ele>192.2</ele><time>2026-04-15T16:36:10.088Z</time></trkpt><trkpt lat="-28.1151767" lon="-49.1692417"><ele>191.60000000000002</ele><time>2026-04-15T16:36:11.088Z</time></trkpt><trkpt lat="-28.11509" lon="-49.1692117"><ele>191.0</ele><time>2026-04-15T16:36:12.087Z</time></trkpt><trkpt lat="-28.1149967" lon="-49.16918"><ele>190.20000000000002</ele><time>2026-04-15T16:36:13.088Z</time></trkpt><trkpt lat="-28.1149" lon="-49.1691667"><ele>189.4</ele><time>2026-04-15T16:36:14.087Z</time></trkpt><trkpt lat="-28.1148067" lon="-49.1691567"><ele>188.6</ele><time>2026-04-15T16:36:15.088Z</time></trkpt><trkpt lat="-28.1147183" lon="-49.16914"><ele>187.8</ele><time>2026-04-15T16:36:16.088Z</time></trkpt><trkpt lat="-28.1146317" lon="-49.1691217"><ele>187.0</ele><time>2026-04-15T16:36:17.088Z</time></trkpt><trkpt lat="-28.114545" lon="-49.16911"><ele>187.0</ele><time>2026-04-15T16:36:18.088Z</time></trkpt><trkpt lat="-28.1144633" lon="-49.1691067"><ele>187.0</ele><time>2026-04-15T16:36:19.088Z</time></trkpt><trkpt lat="-28.114375" lon="-49.1691"><ele>187.0</ele><time>2026-04-15T16:36:20.088Z</time></trkpt><trkpt lat="-28.114285" lon="-49.1690883"><ele>187.0</ele><time>2026-04-15T16:36:21.088Z</time></trkpt><trkpt lat="-28.1140983" lon="-49.1690133"><ele>182.6</ele><time>2026-04-15T16:36:23.088Z</time></trkpt><trkpt lat="-28.1140167" lon="-49.1689517"><ele>178.2</ele><time>2026-04-15T16:36:24.088Z</time></trkpt><trkpt lat="-28.1139283" lon="-49.1688667"><ele>173.8</ele><time>2026-04-15T16:36:25.087Z</time></trkpt><trkpt lat="-28.113835" lon="-49.1687917"><ele>169.4</ele><time>2026-04-15T16:36:26.088Z</time></trkpt><trkpt lat="-28.11374" lon="-49.168725"><ele>165.0</ele><time>2026-04-15T16:36:27.088Z</time></trkpt><trkpt lat="-28.1136383" lon="-49.1686617"><ele>165.0</ele><time>2026-04-15T16:36:28.087Z</time></trkpt><trkpt lat="-28.113535" lon="-49.16861"><ele>165.0</ele><time>2026-04-15T16:36:29.088Z</time></trkpt><trkpt lat="-28.1134383" lon="-49.1685567"><ele>165.0</ele><time>2026-04-15T16:36:30.088Z</time></trkpt><trkpt lat="-28.1133483" lon="-49.16852"><ele>165.0</ele><time>2026-04-15T16:36:31.088Z</time></trkpt><trkpt lat="-28.1132667" lon="-49.1684867"><ele>165.0</ele><time>2026-04-15T16:36:32.088Z</time></trkpt><trkpt lat="-28.113195" lon="-49.168455"><ele>163.85714285714286</ele><time>2026-04-15T16:36:33.088Z</time></trkpt><trkpt lat="-28.1131283" lon="-49.1684383"><ele>162.71428571428572</ele><time>2026-04-15T16:36:34.088Z</time></trkpt><trkpt lat="-28.113055" lon="-49.16844"><ele>161.57142857142856</ele><time>2026-04-15T16:36:35.087Z</time></trkpt><trkpt lat="-28.112985" lon="-49.16844"><ele>160.42857142857144</ele><time>2026-04-15T16:36:36.087Z</time></trkpt><trkpt lat="-28.1129217" lon="-49.168435"><ele>159.28571428571428</ele><time>2026-04-15T16:36:37.088Z</time></trkpt><trkpt lat="-28.1128567" lon="-49.1684283"><ele>158.14285714285714</ele><time>2026-04-15T16:36:38.088Z</time></trkpt><trkpt lat="-28.1127917" lon="-49.1684233"><ele>157.0</ele><time>2026-04-15T16:36:39.088Z</time></trkpt><trkpt lat="-28.1127233" lon="-49.1684167"><ele>157.0</ele><time>2026-04-15T16:36:40.088Z</time></trkpt><trkpt lat="-28.1126033" lon="-49.1683683"><ele>157.0</ele><time>2026-04-15T16:36:42.088Z</time></trkpt><trkpt lat="-28.1124783" lon="-49.1681383"><ele>157.0</ele><time>2026-04-15T16:36:45.088Z</time></trkpt><trkpt lat="-28.1124267" lon="-49.1680217"><ele>158.75</ele><time>2026-04-15T16:36:46.088Z</time></trkpt><trkpt lat="-28.11239" lon="-49.1679"><ele>160.5</ele><time>2026-04-15T16:36:47.088Z</time></trkpt><trkpt lat="-28.112365" lon="-49.1677783"><ele>162.25</ele><time>2026-04-15T16:36:48.088Z</time></trkpt><trkpt lat="-28.1123583" lon="-49.16765"><ele>164.0</ele><time>2026-04-15T16:36:49.088Z</time></trkpt><trkpt lat="-28.1123933" lon="-49.1675083"><ele>163.0</ele><time>2026-04-15T16:36:50.088Z</time></trkpt><trkpt lat="-28.1124383" lon="-49.16734"><ele>162.0</ele><time>2026-04-15T16:36:51.088Z</time></trkpt><trkpt lat="-28.1124867" lon="-49.1671783"><ele>161.0</ele><time>2026-04-15T16:36:52.088Z</time></trkpt><trkpt lat="-28.1125233" lon="-49.166995"><ele>161.0</ele><time>2026-04-15T16:36:53.088Z</time></trkpt><trkpt lat="-28.1125317" lon="-49.1668117"><ele>161.0</ele><time>2026-04-15T16:36:54.088Z</time></trkpt><trkpt lat="-28.1125267" lon="-49.1666267"><ele>161.0</ele><time>2026-04-15T16:36:55.087Z</time></trkpt><trkpt lat="-28.1125067" lon="-49.1664383"><ele>158.66666666666666</ele><time>2026-04-15T16:36:56.088Z</time></trkpt><trkpt lat="-28.1124683" lon="-49.1662517"><ele>156.33333333333334</ele><time>2026-04-15T16:36:57.087Z</time></trkpt><trkpt lat="-28.1124217" lon="-49.1660783"><ele>154.0</ele><time>2026-04-15T16:36:58.088Z</time></trkpt><trkpt lat="-28.1123767" lon="-49.1659283"><ele>154.0</ele><time>2026-04-15T16:36:59.088Z</time></trkpt><trkpt lat="-28.1123333" lon="-49.1657917"><ele>154.0</ele><time>2026-04-15T16:37:00.088Z</time></trkpt><trkpt lat="-28.1123067" lon="-49.165675"><ele>154.0</ele><time>2026-04-15T16:37:01.087Z</time></trkpt><trkpt lat="-28.11228" lon="-49.16558"><ele>154.0</ele><time>2026-04-15T16:37:02.088Z</time></trkpt><trkpt lat="-28.1122267" lon="-49.1654967"><ele>154.0</ele><time>2026-04-15T16:37:03.088Z</time></trkpt><trkpt lat="-28.1120667" lon="-49.1653517"><ele>156.25</ele><time>2026-04-15T16:37:05.088Z</time></trkpt><trkpt lat="-28.1119617" lon="-49.1652817"><ele>158.5</ele><time>2026-04-15T16:37:06.088Z</time></trkpt><trkpt lat="-28.1118467" lon="-49.1652017"><ele>160.75</ele><time>2026-04-15T16:37:07.088Z</time></trkpt><trkpt lat="-28.1117317" lon="-49.1651217"><ele>163.0</ele><time>2026-04-15T16:37:08.088Z</time></trkpt><trkpt lat="-28.1116383" lon="-49.165035"><ele>162.20000000000002</ele><time>2026-04-15T16:37:09.088Z</time></trkpt><trkpt lat="-28.11156" lon="-49.16494"><ele>161.4</ele><time>2026-04-15T16:37:10.088Z</time></trkpt><trkpt lat="-28.1115017" lon="-49.1648233"><ele>160.60000000000002</ele><time>2026-04-15T16:37:11.088Z</time></trkpt><trkpt lat="-28.1114767" lon="-49.1647017"><ele>159.8</ele><time>2026-04-15T16:37:12.088Z</time></trkpt><trkpt lat="-28.11147" lon="-49.1645817"><ele>159.0</ele><time>2026-04-15T16:37:13.088Z</time></trkpt><trkpt lat="-28.1114717" lon="-49.1644333"><ele>158.0</ele><time>2026-04-15T16:37:14.088Z</time></trkpt><trkpt lat="-28.111485" lon="-49.1642833"><ele>157.0</ele><time>2026-04-15T16:37:15.088Z</time></trkpt><trkpt lat="-28.1115" lon="-49.16414"><ele>156.0</ele><time>2026-04-15T16:37:16.088Z</time></trkpt><trkpt lat="-28.1115117" lon="-49.1640117"><ele>155.0</ele><time>2026-04-15T16:37:17.088Z</time></trkpt><trkpt lat="-28.1115217" lon="-49.1639017"><ele>155.0</ele><time>2026-04-15T16:37:18.088Z</time></trkpt><trkpt lat="-28.1115217" lon="-49.1638133"><ele>155.0</ele><time>2026-04-15T16:37:19.088Z</time></trkpt><trkpt lat="-28.11151" lon="-49.1637383"><ele>155.0</ele><time>2026-04-15T16:37:20.088Z</time></trkpt><trkpt lat="-28.1114767" lon="-49.1636667"><ele>155.0</ele><time>2026-04-15T16:37:21.088Z</time></trkpt><trkpt lat="-28.1114233" lon="-49.1636233"><ele>155.0</ele><time>2026-04-15T16:37:22.087Z</time></trkpt><trkpt lat="-28.1113667" lon="-49.163585"><ele>155.0</ele><time>2026-04-15T16:37:23.088Z</time></trkpt><trkpt lat="-28.1113067" lon="-49.1634967"><ele>155.0</ele><time>2026-04-15T16:37:25.088Z</time></trkpt><trkpt lat="-28.1113517" lon="-49.1633"><ele>155.0</ele><time>2026-04-15T16:37:28.088Z</time></trkpt><trkpt lat="-28.1113517" lon="-49.163225"><ele>155.0</ele><time>2026-04-15T16:37:29.087Z</time></trkpt><trkpt lat="-28.1113367" lon="-49.16313"><ele>155.0</ele><time>2026-04-15T16:37:30.088Z</time></trkpt><trkpt lat="-28.1113117" lon="-49.1630167"><ele>155.0</ele><time>2026-04-15T16:37:31.088Z</time></trkpt><trkpt lat="-28.1112867" lon="-49.162895"><ele>155.0</ele><time>2026-04-15T16:37:32.088Z</time></trkpt><trkpt lat="-28.1112617" lon="-49.1627883"><ele>155.66666666666666</ele><time>2026-04-15T16:37:33.088Z</time></trkpt><trkpt lat="-28.1112417" lon="-49.1626833"><ele>156.33333333333331</ele><time>2026-04-15T16:37:34.088Z</time></trkpt><trkpt lat="-28.1112167" lon="-49.162575"><ele>157.0</ele><time>2026-04-15T16:37:35.088Z</time></trkpt><trkpt lat="-28.1112133" lon="-49.1624883"><ele>157.66666666666666</ele><time>2026-04-15T16:37:36.088Z</time></trkpt><trkpt lat="-28.1112133" lon="-49.1624"><ele>158.33333333333334</ele><time>2026-04-15T16:37:37.088Z</time></trkpt><trkpt lat="-28.1112183" lon="-49.16232"><ele>159.0</ele><time>2026-04-15T16:37:38.088Z</time></trkpt><trkpt lat="-28.1112267" lon="-49.1622467"><ele>163.0</ele><time>2026-04-15T16:37:39.088Z</time></trkpt><trkpt lat="-28.111235" lon="-49.162125"><ele>163.0</ele><time>2026-04-15T16:37:41.088Z</time></trkpt><trkpt lat="-28.1112317" lon="-49.1620367"><ele>163.0</ele><time>2026-04-15T16:37:43.088Z</time></trkpt><trkpt lat="-28.1111917" lon="-49.1619717"><ele>163.0</ele><time>2026-04-15T16:37:45.088Z</time></trkpt><trkpt lat="-28.1111417" lon="-49.1620167"><ele>163.0</ele><time>2026-04-15T16:37:48.088Z</time></trkpt></trkseg><trkseg><trkpt lat="-28.1111887" lon="-49.1620385"><ele>163.0</ele><time>2026-04-15T16:52:43.084Z</time></trkpt><trkpt lat="-28.111212" lon="-49.1621403"><ele>163.0</ele><time>2026-04-15T16:52:45.084Z</time></trkpt><trkpt lat="-28.1112138" lon="-49.1622148"><ele>163.0</ele><time>2026-04-15T16:52:46.084Z</time></trkpt><trkpt lat="-28.1112181" lon="-49.1623129"><ele>163.0</ele><time>2026-04-15T16:52:47.084Z</time></trkpt><trkpt lat="-28.1112294" lon="-49.1624316"><ele>163.0</ele><time>2026-04-15T16:52:48.084Z</time></trkpt><trkpt lat="-28.1112378" lon="-49.1625567"><ele>162.20000000000002</ele><time>2026-04-15T16:52:49.084Z</time></trkpt><trkpt lat="-28.1112507" lon="-49.1626749"><ele>161.4</ele><time>2026-04-15T16:52:50.084Z</time></trkpt><trkpt lat="-28.111267" lon="-49.1627979"><ele>160.60000000000002</ele><time>2026-04-15T16:52:51.084Z</time></trkpt><trkpt lat="-28.111281" lon="-49.162925"><ele>159.8</ele><time>2026-04-15T16:52:52.084Z</time></trkpt><trkpt lat="-28.1113016" lon="-49.1630474"><ele>159.0</ele><time>2026-04-15T16:52:53.084Z</time></trkpt><trkpt lat="-28.1113231" lon="-49.1631611"><ele>158.2</ele><time>2026-04-15T16:52:54.084Z</time></trkpt><trkpt lat="-28.1113417" lon="-49.163272"><ele>157.4</ele><time>2026-04-15T16:52:55.084Z</time></trkpt><trkpt lat="-28.1113467" lon="-49.1633667"><ele>156.6</ele><time>2026-04-15T16:52:56.084Z</time></trkpt><trkpt lat="-28.1113333" lon="-49.1634533"><ele>155.8</ele><time>2026-04-15T16:52:57.084Z</time></trkpt><trkpt lat="-28.1113317" lon="-49.163565"><ele>155.0</ele><time>2026-04-15T16:52:59.084Z</time></trkpt><trkpt lat="-28.1113933" lon="-49.1636567"><ele>155.0</ele><time>2026-04-15T16:53:01.084Z</time></trkpt><trkpt lat="-28.1114533" lon="-49.1636833"><ele>155.0</ele><time>2026-04-15T16:53:02.084Z</time></trkpt><trkpt lat="-28.1115217" lon="-49.163675"><ele>155.0</ele><time>2026-04-15T16:53:03.083Z</time></trkpt><trkpt lat="-28.111585" lon="-49.1636367"><ele>155.0</ele><time>2026-04-15T16:53:04.084Z</time></trkpt><trkpt lat="-28.11163" lon="-49.16357"><ele>155.0</ele><time>2026-04-15T16:53:05.083Z</time></trkpt><trkpt lat="-28.111665" lon="-49.16349"><ele>155.0</ele><time>2026-04-15T16:53:06.083Z</time></trkpt><trkpt lat="-28.1116883" lon="-49.1633967"><ele>155.0</ele><time>2026-04-15T16:53:07.084Z</time></trkpt><trkpt lat="-28.1117067" lon="-49.1632933"><ele>154.75</ele><time>2026-04-15T16:53:08.084Z</time></trkpt><trkpt lat="-28.1117267" lon="-49.1631767"><ele>154.5</ele><time>2026-04-15T16:53:09.084Z</time></trkpt><trkpt lat="-28.1117433" lon="-49.16304"><ele>154.25</ele><time>2026-04-15T16:53:10.084Z</time></trkpt><trkpt lat="-28.1117683" lon="-49.1628917"><ele>154.0</ele><time>2026-04-15T16:53:11.084Z</time></trkpt><trkpt lat="-28.11179" lon="-49.1627433"><ele>154.0</ele><time>2026-04-15T16:53:12.084Z</time></trkpt><trkpt lat="-28.1118317" lon="-49.162605"><ele>154.0</ele><time>2026-04-15T16:53:13.084Z</time></trkpt><trkpt lat="-28.1118767" lon="-49.162475"><ele>154.0</ele><time>2026-04-15T16:53:14.084Z</time></trkpt><trkpt lat="-28.1119333" lon="-49.1623467"><ele>154.0</ele><time>2026-04-15T16:53:15.084Z</time></trkpt><trkpt lat="-28.1119967" lon="-49.1622333"><ele>153.5</ele><time>2026-04-15T16:53:16.084Z</time></trkpt><trkpt lat="-28.1120733" lon="-49.1621333"><ele>153.0</ele><time>2026-04-15T16:53:17.084Z</time></trkpt><trkpt lat="-28.1121617" lon="-49.16205"><ele>152.5</ele><time>2026-04-15T16:53:18.083Z</time></trkpt><trkpt lat="-28.1122533" lon="-49.1619683"><ele>152.0</ele><time>2026-04-15T16:53:19.083Z</time></trkpt><trkpt lat="-28.1123317" lon="-49.1618917"><ele>152.0</ele><time>2026-04-15T16:53:20.083Z</time></trkpt><trkpt lat="-28.1123883" lon="-49.16181"><ele>152.0</ele><time>2026-04-15T16:53:21.084Z</time></trkpt><trkpt lat="-28.1124283" lon="-49.16172"><ele>152.0</ele><time>2026-04-15T16:53:22.084Z</time></trkpt><trkpt lat="-28.1124483" lon="-49.16163"><ele>152.0</ele><time>2026-04-15T16:53:23.083Z</time></trkpt><trkpt lat="-28.112465" lon="-49.1615333"><ele>152.0</ele><time>2026-04-15T16:53:24.084Z</time></trkpt><trkpt lat="-28.1124967" lon="-49.1614467"><ele>152.0</ele><time>2026-04-15T16:53:25.084Z</time></trkpt><trkpt lat="-28.1125333" lon="-49.161365"><ele>153.42857142857142</ele><time>2026-04-15T16:53:26.083Z</time></trkpt><trkpt lat="-28.112575" lon="-49.1612933"><ele>154.85714285714286</ele><time>2026-04-15T16:53:27.084Z</time></trkpt><trkpt lat="-28.1126117" lon="-49.161235"><ele>156.28571428571428</ele><time>2026-04-15T16:53:28.084Z</time></trkpt><trkpt lat="-28.11265" lon="-49.161175"><ele>157.71428571428572</ele><time>2026-04-15T16:53:29.083Z</time></trkpt><trkpt lat="-28.1126883" lon="-49.1611133"><ele>159.14285714285714</ele><time>2026-04-15T16:53:30.084Z</time></trkpt><trkpt lat="-28.1127367" lon="-49.16106"><ele>160.57142857142858</ele><time>2026-04-15T16:53:31.084Z</time></trkpt><trkpt lat="-28.1127883" lon="-49.161"><ele>162.0</ele><time>2026-04-15T16:53:32.083Z</time></trkpt><trkpt lat="-28.1128467" lon="-49.160935"><ele>162.0</ele><time>2026-04-15T16:53:33.084Z</time></trkpt><trkpt lat="-28.1129133" lon="-49.160875"><ele>162.0</ele><time>2026-04-15T16:53:34.084Z</time></trkpt><trkpt lat="-28.11299" lon="-49.1608117"><ele>162.0</ele><time>2026-04-15T16:53:35.084Z</time></trkpt><trkpt lat="-28.1130883" lon="-49.160755"><ele>162.0</ele><time>2026-04-15T16:53:36.084Z</time></trkpt><trkpt lat="-28.11319" lon="-49.1606883"><ele>162.0</ele><time>2026-04-15T16:53:37.084Z</time></trkpt><trkpt lat="-28.1132883" lon="-49.1606067"><ele>163.75</ele><time>2026-04-15T16:53:38.084Z</time></trkpt><trkpt lat="-28.113385" lon="-49.1605017"><ele>165.5</ele><time>2026-04-15T16:53:39.084Z</time></trkpt><trkpt lat="-28.113465" lon="-49.160375"><ele>167.25</ele><time>2026-04-15T16:53:40.084Z</time></trkpt><trkpt lat="-28.113535" lon="-49.1602333"><ele>169.0</ele><time>2026-04-15T16:53:41.084Z</time></trkpt><trkpt lat="-28.1136183" lon="-49.1600883"><ele>169.0</ele><time>2026-04-15T16:53:42.084Z</time></trkpt><trkpt lat="-28.1137117" lon="-49.15995"><ele>169.0</ele><time>2026-04-15T16:53:43.084Z</time></trkpt><trkpt lat="-28.1137933" lon="-49.1598233"><ele>169.0</ele><time>2026-04-15T16:53:44.084Z</time></trkpt><trkpt lat="-28.113885" lon="-49.1597183"><ele>169.0</ele><time>2026-04-15T16:53:45.084Z</time></trkpt><trkpt lat="-28.1139667" lon="-49.1596133"><ele>170.75</ele><time>2026-04-15T16:53:46.084Z</time></trkpt><trkpt lat="-28.1140533" lon="-49.1595217"><ele>172.5</ele><time>2026-04-15T16:53:47.084Z</time></trkpt><trkpt lat="-28.1141467" lon="-49.159435"><ele>174.25</ele><time>2026-04-15T16:53:48.084Z</time></trkpt><trkpt lat="-28.1142367" lon="-49.15937"><ele>176.0</ele><time>2026-04-15T16:53:49.084Z</time></trkpt><trkpt lat="-28.1143333" lon="-49.1593117"><ele>176.0</ele><time>2026-04-15T16:53:50.084Z</time></trkpt><trkpt lat="-28.1144267" lon="-49.15927"><ele>176.0</ele><time>2026-04-15T16:53:51.084Z</time></trkpt><trkpt lat="-28.1145267" lon="-49.1592483"><ele>176.0</ele><time>2026-04-15T16:53:52.084Z</time></trkpt><trkpt lat="-28.1146267" lon="-49.1592367"><ele>176.0</ele><time>2026-04-15T16:53:53.084Z</time></trkpt><trkpt lat="-28.1147333" lon="-49.1592517"><ele>176.0</ele><time>2026-04-15T16:53:54.084Z</time></trkpt><trkpt lat="-28.11486" lon="-49.159285"><ele>177.33333333333331</ele><time>2026-04-15T16:53:55.084Z</time></trkpt><trkpt lat="-28.1150017" lon="-49.1593283"><ele>178.66666666666666</ele><time>2026-04-15T16:53:56.084Z</time></trkpt><trkpt lat="-28.11516" lon="-49.159395"><ele>180.0</ele><time>2026-04-15T16:53:57.084Z</time></trkpt><trkpt lat="-28.115325" lon="-49.1594167"><ele>180.0</ele><time>2026-04-15T16:53:58.084Z</time></trkpt><trkpt lat="-28.11551" lon="-49.1594183"><ele>180.0</ele><time>2026-04-15T16:53:59.084Z</time></trkpt><trkpt lat="-28.1156867" lon="-49.1594133"><ele>180.0</ele><time>2026-04-15T16:54:00.084Z</time></trkpt><trkpt lat="-28.115855" lon="-49.1594183"><ele>180.33333333333334</ele><time>2026-04-15T16:54:01.084Z</time></trkpt><trkpt lat="-28.11602" lon="-49.15944"><ele>180.66666666666669</ele><time>2026-04-15T16:54:02.084Z</time></trkpt><trkpt lat="-28.116175" lon="-49.1594583"><ele>181.0</ele><time>2026-04-15T16:54:03.084Z</time></trkpt><trkpt lat="-28.1163233" lon="-49.159475"><ele>181.0</ele><time>2026-04-15T16:54:04.084Z</time></trkpt><trkpt lat="-28.1164533" lon="-49.1594817"><ele>181.0</ele><time>2026-04-15T16:54:05.084Z</time></trkpt><trkpt lat="-28.1165617" lon="-49.15946"><ele>181.0</ele><time>2026-04-15T16:54:06.083Z</time></trkpt><trkpt lat="-28.1166467" lon="-49.1594167"><ele>181.0</ele><time>2026-04-15T16:54:07.084Z</time></trkpt><trkpt lat="-28.11671" lon="-49.1593533"><ele>181.0</ele><time>2026-04-15T16:54:08.084Z</time></trkpt><trkpt lat="-28.1167583" lon="-49.1592683"><ele>181.8</ele><time>2026-04-15T16:54:09.083Z</time></trkpt><trkpt lat="-28.1168067" lon="-49.1591733"><ele>182.60000000000002</ele><time>2026-04-15T16:54:10.084Z</time></trkpt><trkpt lat="-28.1168633" lon="-49.15907"><ele>183.4</ele><time>2026-04-15T16:54:11.083Z</time></trkpt><trkpt lat="-28.1169317" lon="-49.1589667"><ele>184.2</ele><time>2026-04-15T16:54:12.084Z</time></trkpt><trkpt lat="-28.1170033" lon="-49.158865"><ele>185.0</ele><time>2026-04-15T16:54:13.084Z</time></trkpt><trkpt lat="-28.11707" lon="-49.1587633"><ele>185.0</ele><time>2026-04-15T16:54:14.084Z</time></trkpt><trkpt lat="-28.117135" lon="-49.15866"><ele>185.0</ele><time>2026-04-15T16:54:15.084Z</time></trkpt><trkpt lat="-28.1172117" lon="-49.1585733"><ele>185.0</ele><time>2026-04-15T16:54:16.084Z</time></trkpt><trkpt lat="-28.1172967" lon="-49.1584917"><ele>185.0</ele><time>2026-04-15T16:54:17.084Z</time></trkpt><trkpt lat="-28.11738" lon="-49.1584233"><ele>185.0</ele><time>2026-04-15T16:54:18.084Z</time></trkpt><trkpt lat="-28.117465" lon="-49.1583483"><ele>188.2</ele><time>2026-04-15T16:54:19.083Z</time></trkpt><trkpt lat="-28.1175317" lon="-49.1582733"><ele>191.4</ele><time>2026-04-15T16:54:20.084Z</time></trkpt><trkpt lat="-28.1175833" lon="-49.1581833"><ele>194.60000000000002</ele><time>2026-04-15T16:54:21.084Z</time></trkpt><trkpt lat="-28.117625" lon="-49.1580933"><ele>197.8</ele><time>2026-04-15T16:54:22.084Z</time></trkpt><trkpt lat="-28.11767" lon="-49.1579917"><ele>201.0</ele><time>2026-04-15T16:54:23.084Z</time></trkpt><trkpt lat="-28.1177233" lon="-49.15788"><ele>201.0</ele><time>2026-04-15T16:54:24.084Z</time></trkpt><trkpt lat="-28.1177867" lon="-49.1577433"><ele>201.0</ele><time>2026-04-15T16:54:25.084Z</time></trkpt><trkpt lat="-28.1178567" lon="-49.1576167"><ele>201.0</ele><time>2026-04-15T16:54:26.084Z</time></trkpt><trkpt lat="-28.1179267" lon="-49.1574983"><ele>201.0</ele><time>2026-04-15T16:54:27.084Z</time></trkpt><trkpt lat="-28.1179917" lon="-49.1573733"><ele>200.25</ele><time>2026-04-15T16:54:28.084Z</time></trkpt><trkpt lat="-28.1180517" lon="-49.1572467"><ele>199.5</ele><time>2026-04-15T16:54:29.083Z</time></trkpt><trkpt lat="-28.11811" lon="-49.1571267"><ele>198.75</ele><time>2026-04-15T16:54:30.084Z</time></trkpt><trkpt lat="-28.1181833" lon="-49.157005"><ele>198.0</ele><time>2026-04-15T16:54:31.084Z</time></trkpt><trkpt lat="-28.1182683" lon="-49.1568983"><ele>202.75</ele><time>2026-04-15T16:54:32.083Z</time></trkpt><trkpt lat="-28.1183667" lon="-49.1568067"><ele>207.5</ele><time>2026-04-15T16:54:33.084Z</time></trkpt><trkpt lat="-28.11847" lon="-49.156705"><ele>212.25</ele><time>2026-04-15T16:54:34.084Z</time></trkpt><trkpt lat="-28.1185833" lon="-49.156605"><ele>217.0</ele><time>2026-04-15T16:54:35.084Z</time></trkpt><trkpt lat="-28.118695" lon="-49.1564933"><ele>217.0</ele><time>2026-04-15T16:54:36.084Z</time></trkpt><trkpt lat="-28.1188017" lon="-49.15638"><ele>217.0</ele><time>2026-04-15T16:54:37.084Z</time></trkpt><trkpt lat="-28.11892" lon="-49.1562767"><ele>217.0</ele><time>2026-04-15T16:54:38.084Z</time></trkpt><trkpt lat="-28.1190433" lon="-49.156185"><ele>217.0</ele><time>2026-04-15T16:54:39.083Z</time></trkpt><trkpt lat="-28.11917" lon="-49.1560967"><ele>224.0</ele><time>2026-04-15T16:54:40.084Z</time></trkpt><trkpt lat="-28.1192833" lon="-49.15603"><ele>231.0</ele><time>2026-04-15T16:54:41.084Z</time></trkpt><trkpt lat="-28.119365" lon="-49.1559383"><ele>238.0</ele><time>2026-04-15T16:54:42.084Z</time></trkpt><trkpt lat="-28.1194217" lon="-49.15583"><ele>245.0</ele><time>2026-04-15T16:54:43.084Z</time></trkpt><trkpt lat="-28.1194517" lon="-49.15571"><ele>242.75</ele><time>2026-04-15T16:54:44.084Z</time></trkpt><trkpt lat="-28.1194667" lon="-49.15558"><ele>240.5</ele><time>2026-04-15T16:54:45.084Z</time></trkpt><trkpt lat="-28.1194883" lon="-49.15545"><ele>238.25</ele><time>2026-04-15T16:54:46.084Z</time></trkpt><trkpt lat="-28.1195383" lon="-49.1553367"><ele>236.0</ele><time>2026-04-15T16:54:47.084Z</time></trkpt><trkpt lat="-28.1196067" lon="-49.155245"><ele>236.0</ele><time>2026-04-15T16:54:48.084Z</time></trkpt><trkpt lat="-28.1196833" lon="-49.1551783"><ele>236.0</ele><time>2026-04-15T16:54:49.084Z</time></trkpt><trkpt lat="-28.1197767" lon="-49.1551117"><ele>236.0</ele><time>2026-04-15T16:54:50.084Z</time></trkpt><trkpt lat="-28.1198883" lon="-49.1550583"><ele>236.0</ele><time>2026-04-15T16:54:51.084Z</time></trkpt><trkpt lat="-28.1200033" lon="-49.155"><ele>240.0</ele><time>2026-04-15T16:54:52.084Z</time></trkpt><trkpt lat="-28.12012" lon="-49.1549633"><ele>244.0</ele><time>2026-04-15T16:54:53.084Z</time></trkpt><trkpt lat="-28.12022" lon="-49.1549683"><ele>248.0</ele><time>2026-04-15T16:54:54.084Z</time></trkpt><trkpt lat="-28.1203317" lon="-49.15499"><ele>252.0</ele><time>2026-04-15T16:54:55.084Z</time></trkpt><trkpt lat="-28.1204583" lon="-49.1550233"><ele>252.0</ele><time>2026-04-15T16:54:56.084Z</time></trkpt><trkpt lat="-28.120575" lon="-49.1550533"><ele>252.0</ele><time>2026-04-15T16:54:57.084Z</time></trkpt><trkpt lat="-28.1206817" lon="-49.155045"><ele>252.0</ele><time>2026-04-15T16:54:58.084Z</time></trkpt><trkpt lat="-28.1207783" lon="-49.155"><ele>252.0</ele><time>2026-04-15T16:54:59.084Z</time></trkpt><trkpt lat="-28.1208717" lon="-49.15492"><ele>252.0</ele><time>2026-04-15T16:55:00.084Z</time></trkpt><trkpt lat="-28.12097" lon="-49.1548083"><ele>251.75</ele><time>2026-04-15T16:55:01.084Z</time></trkpt><trkpt lat="-28.121065" lon="-49.1546933"><ele>251.5</ele><time>2026-04-15T16:55:02.084Z</time></trkpt><trkpt lat="-28.12115" lon="-49.154565"><ele>251.25</ele><time>2026-04-15T16:55:03.084Z</time></trkpt><trkpt lat="-28.121245" lon="-49.1544333"><ele>251.0</ele><time>2026-04-15T16:55:04.083Z</time></trkpt><trkpt lat="-28.1213467" lon="-49.1542917"><ele>251.0</ele><time>2026-04-15T16:55:05.084Z</time></trkpt><trkpt lat="-28.1214533" lon="-49.1541483"><ele>251.0</ele><time>2026-04-15T16:55:06.084Z</time></trkpt><trkpt lat="-28.1215733" lon="-49.1540283"><ele>251.0</ele><time>2026-04-15T16:55:07.084Z</time></trkpt><trkpt lat="-28.121705" lon="-49.1539317"><ele>259.25</ele><time>2026-04-15T16:55:08.084Z</time></trkpt><trkpt lat="-28.1218383" lon="-49.1538617"><ele>267.5</ele><time>2026-04-15T16:55:09.084Z</time></trkpt><trkpt lat="-28.1219783" lon="-49.153825"><ele>275.75</ele><time>2026-04-15T16:55:10.084Z</time></trkpt><trkpt lat="-28.122125" lon="-49.15382"><ele>284.0</ele><time>2026-04-15T16:55:11.084Z</time></trkpt><trkpt lat="-28.1222817" lon="-49.153825"><ele>279.6666666666667</ele><time>2026-04-15T16:55:12.084Z</time></trkpt><trkpt lat="-28.12245" lon="-49.1538217"><ele>275.3333333333333</ele><time>2026-04-15T16:55:13.084Z</time></trkpt><trkpt lat="-28.1226133" lon="-49.1538117"><ele>271.0</ele><time>2026-04-15T16:55:14.084Z</time></trkpt><trkpt lat="-28.1227833" lon="-49.1537933"><ele>271.0</ele><time>2026-04-15T16:55:15.083Z</time></trkpt><trkpt lat="-28.1229567" lon="-49.1537783"><ele>271.0</ele><time>2026-04-15T16:55:16.084Z</time></trkpt><trkpt lat="-28.1231117" lon="-49.1537567"><ele>271.0</ele><time>2026-04-15T16:55:17.084Z</time></trkpt><trkpt lat="-28.12325" lon="-49.1537367"><ele>269.8</ele><time>2026-04-15T16:55:18.084Z</time></trkpt><trkpt lat="-28.123375" lon="-49.1537133"><ele>268.6</ele><time>2026-04-15T16:55:19.084Z</time></trkpt><trkpt lat="-28.123485" lon="-49.1536867"><ele>267.4</ele><time>2026-04-15T16:55:20.084Z</time></trkpt><trkpt lat="-28.1235833" lon="-49.153665"><ele>266.2</ele><time>2026-04-15T16:55:21.084Z</time></trkpt><trkpt lat="-28.1236783" lon="-49.1536567"><ele>265.0</ele><time>2026-04-15T16:55:22.084Z</time></trkpt><trkpt lat="-28.1237783" lon="-49.1536617"><ele>265.0</ele><time>2026-04-15T16:55:23.084Z</time></trkpt><trkpt lat="-28.1238867" lon="-49.1536733"><ele>265.0</ele><time>2026-04-15T16:55:24.083Z</time></trkpt><trkpt lat="-28.1239983" lon="-49.15369"><ele>265.0</ele><time>2026-04-15T16:55:25.084Z</time></trkpt><trkpt lat="-28.124105" lon="-49.1537017"><ele>265.0</ele><time>2026-04-15T16:55:26.084Z</time></trkpt><trkpt lat="-28.1242033" lon="-49.1536917"><ele>265.0</ele><time>2026-04-15T16:55:27.084Z</time></trkpt><trkpt lat="-28.1242833" lon="-49.153655"><ele>265.2</ele><time>2026-04-15T16:55:28.084Z</time></trkpt><trkpt lat="-28.12436" lon="-49.1536083"><ele>265.4</ele><time>2026-04-15T16:55:29.084Z</time></trkpt><trkpt lat="-28.1244433" lon="-49.1535517"><ele>265.6</ele><time>2026-04-15T16:55:30.083Z</time></trkpt><trkpt lat="-28.124525" lon="-49.1534767"><ele>265.8</ele><time>2026-04-15T16:55:31.084Z</time></trkpt><trkpt lat="-28.12461" lon="-49.1533983"><ele>266.0</ele><time>2026-04-15T16:55:32.083Z</time></trkpt><trkpt lat="-28.124705" lon="-49.15331"><ele>266.0</ele><time>2026-04-15T16:55:33.084Z</time></trkpt><trkpt lat="-28.1247917" lon="-49.1532133"><ele>266.0</ele><time>2026-04-15T16:55:34.084Z</time></trkpt><trkpt lat="-28.1248817" lon="-49.1531167"><ele>266.0</ele><time>2026-04-15T16:55:35.084Z</time></trkpt><trkpt lat="-28.1249733" lon="-49.1530183"><ele>266.0</ele><time>2026-04-15T16:55:36.084Z</time></trkpt><trkpt lat="-28.12508" lon="-49.1529133"><ele>267.25</ele><time>2026-04-15T16:55:37.084Z</time></trkpt><trkpt lat="-28.1251983" lon="-49.1528167"><ele>268.5</ele><time>2026-04-15T16:55:38.084Z</time></trkpt><trkpt lat="-28.1253083" lon="-49.15273"><ele>269.75</ele><time>2026-04-15T16:55:39.084Z</time></trkpt><trkpt lat="-28.1254133" lon="-49.1526583"><ele>271.0</ele><time>2026-04-15T16:55:40.084Z</time></trkpt><trkpt lat="-28.1255067" lon="-49.152595"><ele>271.0</ele><time>2026-04-15T16:55:41.083Z</time></trkpt><trkpt lat="-28.1256017" lon="-49.15255"><ele>271.0</ele><time>2026-04-15T16:55:42.084Z</time></trkpt><trkpt lat="-28.1256933" lon="-49.152495"><ele>271.0</ele><time>2026-04-15T16:55:43.084Z</time></trkpt><trkpt lat="-28.1257817" lon="-49.1524433"><ele>271.0</ele><time>2026-04-15T16:55:44.084Z</time></trkpt><trkpt lat="-28.1258717" lon="-49.15238"><ele>271.0</ele><time>2026-04-15T16:55:45.084Z</time></trkpt><trkpt lat="-28.1259517" lon="-49.1523133"><ele>267.6</ele><time>2026-04-15T16:55:46.084Z</time></trkpt><trkpt lat="-28.12603" lon="-49.152245"><ele>264.20000000000005</ele><time>2026-04-15T16:55:47.084Z</time></trkpt><trkpt lat="-28.1260983" lon="-49.1521733"><ele>260.79999999999995</ele><time>2026-04-15T16:55:48.084Z</time></trkpt><trkpt lat="-28.1261583" lon="-49.15208"><ele>257.4</ele><time>2026-04-15T16:55:49.084Z</time></trkpt><trkpt lat="-28.12621" lon="-49.1519717"><ele>254.0</ele><time>2026-04-15T16:55:50.084Z</time></trkpt><trkpt lat="-28.1262467" lon="-49.151855"><ele>254.0</ele><time>2026-04-15T16:55:51.084Z</time></trkpt><trkpt lat="-28.12627" lon="-49.1517317"><ele>254.0</ele><time>2026-04-15T16:55:52.084Z</time></trkpt><trkpt lat="-28.12629" lon="-49.1516033"><ele>254.0</ele><time>2026-04-15T16:55:53.084Z</time></trkpt><trkpt lat="-28.1263183" lon="-49.1514733"><ele>254.0</ele><time>2026-04-15T16:55:54.084Z</time></trkpt><trkpt lat="-28.1263583" lon="-49.1513433"><ele>254.25</ele><time>2026-04-15T16:55:55.084Z</time></trkpt><trkpt lat="-28.1264067" lon="-49.1512217"><ele>254.5</ele><time>2026-04-15T16:55:56.084Z</time></trkpt><trkpt lat="-28.1264683" lon="-49.1511"><ele>254.75</ele><time>2026-04-15T16:55:57.084Z</time></trkpt><trkpt lat="-28.1265367" lon="-49.15099"><ele>255.0</ele><time>2026-04-15T16:55:58.084Z</time></trkpt><trkpt lat="-28.12661" lon="-49.1509083"><ele>252.4</ele><time>2026-04-15T16:55:59.084Z</time></trkpt><trkpt lat="-28.126695" lon="-49.1508383"><ele>249.8</ele><time>2026-04-15T16:56:00.084Z</time></trkpt><trkpt lat="-28.126785" lon="-49.1507883"><ele>247.2</ele><time>2026-04-15T16:56:01.083Z</time></trkpt><trkpt lat="-28.1268917" lon="-49.1507567"><ele>244.6</ele><time>2026-04-15T16:56:02.084Z</time></trkpt><trkpt lat="-28.127015" lon="-49.1507283"><ele>242.0</ele><time>2026-04-15T16:56:03.084Z</time></trkpt><trkpt lat="-28.1271433" lon="-49.1506883"><ele>240.75</ele><time>2026-04-15T16:56:04.084Z</time></trkpt><trkpt lat="-28.12727" lon="-49.15063"><ele>239.5</ele><time>2026-04-15T16:56:05.084Z</time></trkpt><trkpt lat="-28.12739" lon="-49.150565"><ele>238.25</ele><time>2026-04-15T16:56:06.084Z</time></trkpt><trkpt lat="-28.1275017" lon="-49.1504567"><ele>237.0</ele><time>2026-04-15T16:56:07.084Z</time></trkpt><trkpt lat="-28.1275917" lon="-49.1503333"><ele>234.66666666666669</ele><time>2026-04-15T16:56:08.084Z</time></trkpt><trkpt lat="-28.1276733" lon="-49.150185"><ele>232.33333333333334</ele><time>2026-04-15T16:56:09.084Z</time></trkpt><trkpt lat="-28.12774" lon="-49.15003"><ele>230.0</ele><time>2026-04-15T16:56:10.084Z</time></trkpt><trkpt lat="-28.1277933" lon="-49.1498583"><ele>227.33333333333334</ele><time>2026-04-15T16:56:11.084Z</time></trkpt><trkpt lat="-28.1278283" lon="-49.149665"><ele>224.66666666666669</ele><time>2026-04-15T16:56:12.084Z</time></trkpt><trkpt lat="-28.1278567" lon="-49.1494533"><ele>222.0</ele><time>2026-04-15T16:56:13.084Z</time></trkpt><trkpt lat="-28.1278733" lon="-49.1492483"><ele>222.0</ele><time>2026-04-15T16:56:14.083Z</time></trkpt><trkpt lat="-28.127905" lon="-49.1490467"><ele>222.0</ele><time>2026-04-15T16:56:15.084Z</time></trkpt><trkpt lat="-28.12795" lon="-49.14885"><ele>222.0</ele><time>2026-04-15T16:56:16.084Z</time></trkpt><trkpt lat="-28.1280083" lon="-49.14867"><ele>218.66666666666669</ele><time>2026-04-15T16:56:17.084Z</time></trkpt><trkpt lat="-28.12809" lon="-49.1485117"><ele>215.33333333333334</ele><time>2026-04-15T16:56:18.084Z</time></trkpt><trkpt lat="-28.1281883" lon="-49.1483567"><ele>212.0</ele><time>2026-04-15T16:56:19.084Z</time></trkpt><trkpt lat="-28.1282983" lon="-49.1482067"><ele>211.25</ele><time>2026-04-15T16:56:20.084Z</time></trkpt><trkpt lat="-28.1284" lon="-49.148065"><ele>210.5</ele><time>2026-04-15T16:56:21.084Z</time></trkpt><trkpt lat="-28.128495" lon="-49.14793"><ele>209.75</ele><time>2026-04-15T16:56:22.084Z</time></trkpt><trkpt lat="-28.1285917" lon="-49.147835"><ele>209.0</ele><time>2026-04-15T16:56:23.083Z</time></trkpt><trkpt lat="-28.1286983" lon="-49.1477733"><ele>209.0</ele><time>2026-04-15T16:56:24.084Z</time></trkpt><trkpt lat="-28.1288283" lon="-49.14773"><ele>209.0</ele><time>2026-04-15T16:56:25.084Z</time></trkpt><trkpt lat="-28.1289583" lon="-49.1476967"><ele>209.0</ele><time>2026-04-15T16:56:26.084Z</time></trkpt><trkpt lat="-28.1290917" lon="-49.1476417"><ele>209.0</ele><time>2026-04-15T16:56:27.084Z</time></trkpt><trkpt lat="-28.1292117" lon="-49.1475717"><ele>210.66666666666669</ele><time>2026-04-15T16:56:28.084Z</time></trkpt><trkpt lat="-28.129335" lon="-49.1474733"><ele>212.33333333333331</ele><time>2026-04-15T16:56:29.084Z</time></trkpt><trkpt lat="-28.1294467" lon="-49.1473517"><ele>214.0</ele><time>2026-04-15T16:56:30.084Z</time></trkpt><trkpt lat="-28.1295533" lon="-49.1472017"><ele>216.0</ele><time>2026-04-15T16:56:31.084Z</time></trkpt><trkpt lat="-28.1296483" lon="-49.1470383"><ele>218.0</ele><time>2026-04-15T16:56:32.083Z</time></trkpt><trkpt lat="-28.1297433" lon="-49.1468683"><ele>220.0</ele><time>2026-04-15T16:56:33.084Z</time></trkpt><trkpt lat="-28.129835" lon="-49.1466917"><ele>221.66666666666666</ele><time>2026-04-15T16:56:34.084Z</time></trkpt><trkpt lat="-28.1299283" lon="-49.1465117"><ele>223.33333333333331</ele><time>2026-04-15T16:56:35.084Z</time></trkpt><trkpt lat="-28.1300267" lon="-49.146325"><ele>225.0</ele><time>2026-04-15T16:56:36.084Z</time></trkpt><trkpt lat="-28.1301267" lon="-49.1461333"><ele>225.0</ele><time>2026-04-15T16:56:37.084Z</time></trkpt><trkpt lat="-28.1302333" lon="-49.1459383"><ele>225.0</ele><time>2026-04-15T16:56:38.084Z</time></trkpt><trkpt lat="-28.130335" lon="-49.1457433"><ele>225.0</ele><time>2026-04-15T16:56:39.084Z</time></trkpt><trkpt lat="-28.1304433" lon="-49.14555"><ele>229.33333333333331</ele><time>2026-04-15T16:56:40.084Z</time></trkpt><trkpt lat="-28.130555" lon="-49.14536"><ele>233.66666666666666</ele><time>2026-04-15T16:56:41.083Z</time></trkpt><trkpt lat="-28.1306633" lon="-49.1451767"><ele>238.0</ele><time>2026-04-15T16:56:42.084Z</time></trkpt><trkpt lat="-28.1307783" lon="-49.14499"><ele>241.66666666666666</ele><time>2026-04-15T16:56:43.084Z</time></trkpt><trkpt lat="-28.1309017" lon="-49.1448"><ele>245.33333333333331</ele><time>2026-04-15T16:56:44.084Z</time></trkpt><trkpt lat="-28.13103" lon="-49.14461"><ele>249.0</ele><time>2026-04-15T16:56:45.084Z</time></trkpt><trkpt lat="-28.1311583" lon="-49.144415"><ele>249.0</ele><time>2026-04-15T16:56:46.084Z</time></trkpt><trkpt lat="-28.1312817" lon="-49.1442267"><ele>249.0</ele><time>2026-04-15T16:56:47.083Z</time></trkpt><trkpt lat="-28.1313917" lon="-49.14405"><ele>249.0</ele><time>2026-04-15T16:56:48.084Z</time></trkpt><trkpt lat="-28.13149" lon="-49.143885"><ele>251.0</ele><time>2026-04-15T16:56:49.084Z</time></trkpt><trkpt lat="-28.131545" lon="-49.1437267"><ele>253.0</ele><time>2026-04-15T16:56:50.084Z</time></trkpt><trkpt lat="-28.1315833" lon="-49.1435833"><ele>255.0</ele><time>2026-04-15T16:56:51.084Z</time></trkpt><trkpt lat="-28.1316367" lon="-49.1434567"><ele>257.0</ele><time>2026-04-15T16:56:52.083Z</time></trkpt><trkpt lat="-28.1316883" lon="-49.1433333"><ele>257.0</ele><time>2026-04-15T16:56:53.084Z</time></trkpt><trkpt lat="-28.1317367" lon="-49.1432333"><ele>257.0</ele><time>2026-04-15T16:56:54.084Z</time></trkpt><trkpt lat="-28.13177" lon="-49.143145"><ele>257.0</ele><time>2026-04-15T16:56:55.084Z</time></trkpt><trkpt lat="-28.1317883" lon="-49.14306"><ele>257.0</ele><time>2026-04-15T16:56:56.084Z</time></trkpt><trkpt lat="-28.1317933" lon="-49.1429817"><ele>257.0</ele><time>2026-04-15T16:56:57.083Z</time></trkpt><trkpt lat="-28.1317817" lon="-49.1429083"><ele>257.0</ele><time>2026-04-15T16:56:58.084Z</time></trkpt><trkpt lat="-28.131765" lon="-49.1428383"><ele>255.2</ele><time>2026-04-15T16:56:59.084Z</time></trkpt><trkpt lat="-28.1317233" lon="-49.1427617"><ele>253.39999999999998</ele><time>2026-04-15T16:57:00.084Z</time></trkpt><trkpt lat="-28.1316617" lon="-49.142685"><ele>251.60000000000002</ele><time>2026-04-15T16:57:01.083Z</time></trkpt><trkpt lat="-28.131575" lon="-49.142605"><ele>249.8</ele><time>2026-04-15T16:57:02.084Z</time></trkpt><trkpt lat="-28.1314683" lon="-49.14252"><ele>248.0</ele><time>2026-04-15T16:57:03.084Z</time></trkpt><trkpt lat="-28.1313417" lon="-49.142445"><ele>248.25</ele><time>2026-04-15T16:57:04.084Z</time></trkpt><trkpt lat="-28.1312217" lon="-49.1423667"><ele>248.5</ele><time>2026-04-15T16:57:05.084Z</time></trkpt><trkpt lat="-28.1311033" lon="-49.142275"><ele>248.75</ele><time>2026-04-15T16:57:06.084Z</time></trkpt><trkpt lat="-28.1310033" lon="-49.1421683"><ele>249.0</ele><time>2026-04-15T16:57:07.084Z</time></trkpt><trkpt lat="-28.130905" lon="-49.142055"><ele>249.0</ele><time>2026-04-15T16:57:08.083Z</time></trkpt><trkpt lat="-28.1307933" lon="-49.1419567"><ele>249.0</ele><time>2026-04-15T16:57:09.084Z</time></trkpt><trkpt lat="-28.1306733" lon="-49.141875"><ele>249.0</ele><time>2026-04-15T16:57:10.084Z</time></trkpt><trkpt lat="-28.1305617" lon="-49.1417967"><ele>249.0</ele><time>2026-04-15T16:57:11.084Z</time></trkpt><trkpt lat="-28.130465" lon="-49.1417167"><ele>248.2</ele><time>2026-04-15T16:57:12.084Z</time></trkpt><trkpt lat="-28.13039" lon="-49.1416133"><ele>247.39999999999998</ele><time>2026-04-15T16:57:13.084Z</time></trkpt><trkpt lat="-28.130345" lon="-49.141495"><ele>246.6</ele><time>2026-04-15T16:57:14.084Z</time></trkpt><trkpt lat="-28.1303033" lon="-49.1413817"><ele>245.8</ele><time>2026-04-15T16:57:15.084Z</time></trkpt><trkpt lat="-28.130245" lon="-49.1412817"><ele>245.0</ele><time>2026-04-15T16:57:16.084Z</time></trkpt><trkpt lat="-28.1301717" lon="-49.1412033"><ele>245.0</ele><time>2026-04-15T16:57:17.084Z</time></trkpt><trkpt lat="-28.130085" lon="-49.141155"><ele>245.0</ele><time>2026-04-15T16:57:18.083Z</time></trkpt><trkpt lat="-28.129965" lon="-49.14113"><ele>245.0</ele><time>2026-04-15T16:57:19.083Z</time></trkpt><trkpt lat="-28.1298433" lon="-49.14111"><ele>245.0</ele><time>2026-04-15T16:57:20.083Z</time></trkpt><trkpt lat="-28.1297233" lon="-49.1410967"><ele>245.4</ele><time>2026-04-15T16:57:21.083Z</time></trkpt><trkpt lat="-28.129615" lon="-49.14107"><ele>245.8</ele><time>2026-04-15T16:57:22.083Z</time></trkpt><trkpt lat="-28.1295133" lon="-49.1410233"><ele>246.2</ele><time>2026-04-15T16:57:23.083Z</time></trkpt><trkpt lat="-28.1294333" lon="-49.1409417"><ele>246.6</ele><time>2026-04-15T16:57:24.083Z</time></trkpt><trkpt lat="-28.129365" lon="-49.1408383"><ele>247.0</ele><time>2026-04-15T16:57:25.083Z</time></trkpt><trkpt lat="-28.1292933" lon="-49.140725"><ele>241.33333333333331</ele><time>2026-04-15T16:57:26.083Z</time></trkpt><trkpt lat="-28.1291917" lon="-49.14065"><ele>235.66666666666669</ele><time>2026-04-15T16:57:27.083Z</time></trkpt><trkpt lat="-28.1290733" lon="-49.14053"><ele>230.0</ele><time>2026-04-15T16:57:28.083Z</time></trkpt><trkpt lat="-28.1289267" lon="-49.140425"><ele>230.0</ele><time>2026-04-15T16:57:29.083Z</time></trkpt><trkpt lat="-28.1287867" lon="-49.1403367"><ele>230.0</ele><time>2026-04-15T16:57:30.083Z</time></trkpt><trkpt lat="-28.1286667" lon="-49.1402433"><ele>230.0</ele><time>2026-04-15T16:57:31.083Z</time></trkpt><trkpt lat="-28.1285667" lon="-49.1401483"><ele>230.0</ele><time>2026-04-15T16:57:32.083Z</time></trkpt><trkpt lat="-28.1284817" lon="-49.14007"><ele>230.0</ele><time>2026-04-15T16:57:33.083Z</time></trkpt><trkpt lat="-28.1283883" lon="-49.14001"><ele>230.0</ele><time>2026-04-15T16:57:34.082Z</time></trkpt><trkpt lat="-28.1282883" lon="-49.1399767"><ele>230.0</ele><time>2026-04-15T16:57:35.083Z</time></trkpt><trkpt lat="-28.128175" lon="-49.13998"><ele>230.0</ele><time>2026-04-15T16:57:36.083Z</time></trkpt><trkpt lat="-28.1280467" lon="-49.1400067"><ele>227.75</ele><time>2026-04-15T16:57:37.083Z</time></trkpt><trkpt lat="-28.1279183" lon="-49.1400367"><ele>225.5</ele><time>2026-04-15T16:57:38.083Z</time></trkpt><trkpt lat="-28.1277967" lon="-49.1400517"><ele>223.25</ele><time>2026-04-15T16:57:39.083Z</time></trkpt><trkpt lat="-28.1276833" lon="-49.1400617"><ele>221.0</ele><time>2026-04-15T16:57:40.082Z</time></trkpt><trkpt lat="-28.12758" lon="-49.14005"><ele>221.0</ele><time>2026-04-15T16:57:41.083Z</time></trkpt><trkpt lat="-28.1274967" lon="-49.1399917"><ele>221.00000000000003</ele><time>2026-04-15T16:57:42.083Z</time></trkpt><trkpt lat="-28.12743" lon="-49.1399017"><ele>221.00000000000003</ele><time>2026-04-15T16:57:43.083Z</time></trkpt><trkpt lat="-28.1273817" lon="-49.13979"><ele>221.0</ele><time>2026-04-15T16:57:44.083Z</time></trkpt><trkpt lat="-28.127345" lon="-49.13964"><ele>221.0</ele><time>2026-04-15T16:57:45.083Z</time></trkpt><trkpt lat="-28.1273183" lon="-49.1394683"><ele>219.66666666666669</ele><time>2026-04-15T16:57:46.082Z</time></trkpt><trkpt lat="-28.127295" lon="-49.1392833"><ele>218.33333333333331</ele><time>2026-04-15T16:57:47.083Z</time></trkpt><trkpt lat="-28.1272717" lon="-49.139105"><ele>217.0</ele><time>2026-04-15T16:57:48.083Z</time></trkpt><trkpt lat="-28.127255" lon="-49.13894"><ele>217.0</ele><time>2026-04-15T16:57:49.083Z</time></trkpt><trkpt lat="-28.1272567" lon="-49.1387717"><ele>217.0</ele><time>2026-04-15T16:57:50.082Z</time></trkpt><trkpt lat="-28.1272917" lon="-49.1386033"><ele>217.0</ele><time>2026-04-15T16:57:51.083Z</time></trkpt><trkpt lat="-28.1273533" lon="-49.13843"><ele>213.33333333333331</ele><time>2026-04-15T16:57:52.083Z</time></trkpt><trkpt lat="-28.1274417" lon="-49.1382583"><ele>209.66666666666669</ele><time>2026-04-15T16:57:53.083Z</time></trkpt><trkpt lat="-28.127545" lon="-49.1380917"><ele>206.0</ele><time>2026-04-15T16:57:54.083Z</time></trkpt><trkpt lat="-28.127675" lon="-49.1379383"><ele>206.0</ele><time>2026-04-15T16:57:55.083Z</time></trkpt><trkpt lat="-28.127805" lon="-49.13779"><ele>206.0</ele><time>2026-04-15T16:57:56.083Z</time></trkpt><trkpt lat="-28.1279267" lon="-49.1376617"><ele>206.0</ele><time>2026-04-15T16:57:57.083Z</time></trkpt><trkpt lat="-28.1280567" lon="-49.13755"><ele>206.0</ele><time>2026-04-15T16:57:58.083Z</time></trkpt><trkpt lat="-28.128195" lon="-49.13746"><ele>206.0</ele><time>2026-04-15T16:57:59.083Z</time></trkpt><trkpt lat="-28.1283417" lon="-49.1374033"><ele>206.0</ele><time>2026-04-15T16:58:00.083Z</time></trkpt><trkpt lat="-28.1284967" lon="-49.137355"><ele>201.0</ele><time>2026-04-15T16:58:01.083Z</time></trkpt><trkpt lat="-28.12867" lon="-49.1373"><ele>196.0</ele><time>2026-04-15T16:58:02.083Z</time></trkpt><trkpt lat="-28.128855" lon="-49.1372383"><ele>191.0</ele><time>2026-04-15T16:58:03.083Z</time></trkpt><trkpt lat="-28.1290283" lon="-49.1371767"><ele>191.25</ele><time>2026-04-15T16:58:04.083Z</time></trkpt><trkpt lat="-28.1291833" lon="-49.137125"><ele>191.5</ele><time>2026-04-15T16:58:05.083Z</time></trkpt><trkpt lat="-28.129325" lon="-49.1370867"><ele>191.75</ele><time>2026-04-15T16:58:06.083Z</time></trkpt><trkpt lat="-28.129455" lon="-49.1370467"><ele>192.0</ele><time>2026-04-15T16:58:07.083Z</time></trkpt><trkpt lat="-28.12957" lon="-49.1369933"><ele>192.0</ele><time>2026-04-15T16:58:08.083Z</time></trkpt><trkpt lat="-28.129665" lon="-49.1369133"><ele>192.0</ele><time>2026-04-15T16:58:09.083Z</time></trkpt><trkpt lat="-28.1297467" lon="-49.13681"><ele>192.0</ele><time>2026-04-15T16:58:10.083Z</time></trkpt><trkpt lat="-28.1297967" lon="-49.1366917"><ele>192.0</ele><time>2026-04-15T16:58:11.083Z</time></trkpt><trkpt lat="-28.1298283" lon="-49.1365433"><ele>191.5</ele><time>2026-04-15T16:58:12.083Z</time></trkpt><trkpt lat="-28.1298733" lon="-49.1363917"><ele>191.0</ele><time>2026-04-15T16:58:13.083Z</time></trkpt><trkpt lat="-28.12991" lon="-49.13624"><ele>190.5</ele><time>2026-04-15T16:58:14.082Z</time></trkpt><trkpt lat="-28.12994" lon="-49.1360617"><ele>190.0</ele><time>2026-04-15T16:58:15.083Z</time></trkpt><trkpt lat="-28.1299767" lon="-49.1358733"><ele>192.0</ele><time>2026-04-15T16:58:16.083Z</time></trkpt><trkpt lat="-28.13002" lon="-49.1356833"><ele>194.0</ele><time>2026-04-15T16:58:17.083Z</time></trkpt><trkpt lat="-28.1300683" lon="-49.1355067"><ele>196.0</ele><time>2026-04-15T16:58:18.083Z</time></trkpt><trkpt lat="-28.13013" lon="-49.1353433"><ele>196.0</ele><time>2026-04-15T16:58:19.083Z</time></trkpt><trkpt lat="-28.1302083" lon="-49.1352017"><ele>196.0</ele><time>2026-04-15T16:58:20.083Z</time></trkpt><trkpt lat="-28.1303033" lon="-49.135095"><ele>196.0</ele><time>2026-04-15T16:58:21.083Z</time></trkpt><trkpt lat="-28.13042" lon="-49.1350117"><ele>196.0</ele><time>2026-04-15T16:58:22.082Z</time></trkpt><trkpt lat="-28.1305617" lon="-49.134945"><ele>196.0</ele><time>2026-04-15T16:58:23.083Z</time></trkpt><trkpt lat="-28.1307183" lon="-49.1348917"><ele>196.0</ele><time>2026-04-15T16:58:24.083Z</time></trkpt><trkpt lat="-28.1308717" lon="-49.1348317"><ele>196.0</ele><time>2026-04-15T16:58:25.083Z</time></trkpt><trkpt lat="-28.1310367" lon="-49.134775"><ele>198.33333333333331</ele><time>2026-04-15T16:58:26.083Z</time></trkpt><trkpt lat="-28.13119" lon="-49.1347067"><ele>200.66666666666669</ele><time>2026-04-15T16:58:27.083Z</time></trkpt><trkpt lat="-28.131325" lon="-49.1346217"><ele>203.0</ele><time>2026-04-15T16:58:28.082Z</time></trkpt><trkpt lat="-28.1314467" lon="-49.1345083"><ele>203.0</ele><time>2026-04-15T16:58:29.083Z</time></trkpt><trkpt lat="-28.1315567" lon="-49.1343733"><ele>203.0</ele><time>2026-04-15T16:58:30.082Z</time></trkpt><trkpt lat="-28.1316267" lon="-49.134205"><ele>203.0</ele><time>2026-04-15T16:58:31.083Z</time></trkpt><trkpt lat="-28.1316717" lon="-49.13404"><ele>205.33333333333334</ele><time>2026-04-15T16:58:32.083Z</time></trkpt><trkpt lat="-28.1316817" lon="-49.1338733"><ele>207.66666666666669</ele><time>2026-04-15T16:58:33.082Z</time></trkpt><trkpt lat="-28.13167" lon="-49.13369"><ele>210.0</ele><time>2026-04-15T16:58:34.083Z</time></trkpt><trkpt lat="-28.1316483" lon="-49.1335133"><ele>210.0</ele><time>2026-04-15T16:58:35.083Z</time></trkpt><trkpt lat="-28.13162" lon="-49.13332"><ele>210.0</ele><time>2026-04-15T16:58:36.083Z</time></trkpt><trkpt lat="-28.1316117" lon="-49.1331167"><ele>210.0</ele><time>2026-04-15T16:58:37.083Z</time></trkpt><trkpt lat="-28.1316217" lon="-49.1329217"><ele>213.66666666666669</ele><time>2026-04-15T16:58:38.083Z</time></trkpt><trkpt lat="-28.1316383" lon="-49.1327183"><ele>217.33333333333334</ele><time>2026-04-15T16:58:39.083Z</time></trkpt><trkpt lat="-28.1316667" lon="-49.132515"><ele>221.0</ele><time>2026-04-15T16:58:40.083Z</time></trkpt><trkpt lat="-28.1317033" lon="-49.1323083"><ele>221.66666666666669</ele><time>2026-04-15T16:58:41.083Z</time></trkpt><trkpt lat="-28.1317417" lon="-49.1321"><ele>222.33333333333331</ele><time>2026-04-15T16:58:42.083Z</time></trkpt><trkpt lat="-28.13178" lon="-49.131895"><ele>223.0</ele><time>2026-04-15T16:58:43.083Z</time></trkpt><trkpt lat="-28.13183" lon="-49.1317067"><ele>220.0</ele><time>2026-04-15T16:58:44.083Z</time></trkpt><trkpt lat="-28.1318783" lon="-49.13151"><ele>217.0</ele><time>2026-04-15T16:58:45.083Z</time></trkpt><trkpt lat="-28.1319433" lon="-49.131325"><ele>214.0</ele><time>2026-04-15T16:58:46.083Z</time></trkpt><trkpt lat="-28.1320367" lon="-49.1311383"><ele>214.0</ele><time>2026-04-15T16:58:47.083Z</time></trkpt><trkpt lat="-28.1321417" lon="-49.1309383"><ele>214.0</ele><time>2026-04-15T16:58:48.083Z</time></trkpt><trkpt lat="-28.132245" lon="-49.13072"><ele>214.0</ele><time>2026-04-15T16:58:49.083Z</time></trkpt><trkpt lat="-28.1323567" lon="-49.13049"><ele>214.0</ele><time>2026-04-15T16:58:50.083Z</time></trkpt><trkpt lat="-28.1324783" lon="-49.1302617"><ele>214.0</ele><time>2026-04-15T16:58:51.083Z</time></trkpt><trkpt lat="-28.132615" lon="-49.1300217"><ele>217.0</ele><time>2026-04-15T16:58:52.083Z</time></trkpt><trkpt lat="-28.1327467" lon="-49.129775"><ele>220.0</ele><time>2026-04-15T16:58:53.083Z</time></trkpt><trkpt lat="-28.132875" lon="-49.1295283"><ele>220.0</ele><time>2026-04-15T16:58:54.083Z</time></trkpt><trkpt lat="-28.1329983" lon="-49.1292883"><ele>220.0</ele><time>2026-04-15T16:58:55.083Z</time></trkpt><trkpt lat="-28.1331317" lon="-49.1290417"><ele>227.0</ele><time>2026-04-15T16:58:56.083Z</time></trkpt><trkpt lat="-28.1332617" lon="-49.1288017"><ele>234.0</ele><time>2026-04-15T16:58:57.082Z</time></trkpt><trkpt lat="-28.133395" lon="-49.1285833"><ele>234.0</ele><time>2026-04-15T16:58:58.083Z</time></trkpt><trkpt lat="-28.1335233" lon="-49.1284"><ele>234.0</ele><time>2026-04-15T16:58:59.083Z</time></trkpt><trkpt lat="-28.1336417" lon="-49.128235"><ele>234.0</ele><time>2026-04-15T16:59:00.083Z</time></trkpt><trkpt lat="-28.1337533" lon="-49.128085"><ele>236.75</ele><time>2026-04-15T16:59:01.083Z</time></trkpt><trkpt lat="-28.1338517" lon="-49.12795"><ele>239.5</ele><time>2026-04-15T16:59:02.083Z</time></trkpt><trkpt lat="-28.1339283" lon="-49.127825"><ele>242.25</ele><time>2026-04-15T16:59:03.083Z</time></trkpt><trkpt lat="-28.1339767" lon="-49.1277067"><ele>245.0</ele><time>2026-04-15T16:59:04.083Z</time></trkpt><trkpt lat="-28.1340083" lon="-49.1275783"><ele>245.0</ele><time>2026-04-15T16:59:05.083Z</time></trkpt><trkpt lat="-28.1340267" lon="-49.1274417"><ele>245.0</ele><time>2026-04-15T16:59:06.082Z</time></trkpt><trkpt lat="-28.1340317" lon="-49.1272967"><ele>245.0</ele><time>2026-04-15T16:59:07.083Z</time></trkpt><trkpt lat="-28.1340333" lon="-49.1271467"><ele>245.0</ele><time>2026-04-15T16:59:08.083Z</time></trkpt><trkpt lat="-28.1340367" lon="-49.126975"><ele>245.0</ele><time>2026-04-15T16:59:09.082Z</time></trkpt><trkpt lat="-28.1340483" lon="-49.1267983"><ele>245.0</ele><time>2026-04-15T16:59:10.083Z</time></trkpt><trkpt lat="-28.1340617" lon="-49.1266217"><ele>245.0</ele><time>2026-04-15T16:59:11.082Z</time></trkpt><trkpt lat="-28.134075" lon="-49.126475"><ele>245.0</ele><time>2026-04-15T16:59:12.083Z</time></trkpt><trkpt lat="-28.1340717" lon="-49.1263267"><ele>245.25</ele><time>2026-04-15T16:59:13.083Z</time></trkpt><trkpt lat="-28.134075" lon="-49.1261767"><ele>245.5</ele><time>2026-04-15T16:59:14.083Z</time></trkpt><trkpt lat="-28.1340817" lon="-49.1260067"><ele>245.75</ele><time>2026-04-15T16:59:15.083Z</time></trkpt><trkpt lat="-28.1340867" lon="-49.12584"><ele>246.0</ele><time>2026-04-15T16:59:16.083Z</time></trkpt><trkpt lat="-28.1340883" lon="-49.125665"><ele>243.66666666666669</ele><time>2026-04-15T16:59:17.082Z</time></trkpt><trkpt lat="-28.13409" lon="-49.1254967"><ele>241.33333333333334</ele><time>2026-04-15T16:59:18.083Z</time></trkpt><trkpt lat="-28.1340933" lon="-49.1253183"><ele>239.0</ele><time>2026-04-15T16:59:19.083Z</time></trkpt><trkpt lat="-28.1340917" lon="-49.1251333"><ele>239.0</ele><time>2026-04-15T16:59:20.083Z</time></trkpt><trkpt lat="-28.1340917" lon="-49.124965"><ele>239.0</ele><time>2026-04-15T16:59:21.083Z</time></trkpt><trkpt lat="-28.13408" lon="-49.1247967"><ele>239.0</ele><time>2026-04-15T16:59:22.083Z</time></trkpt><trkpt lat="-28.13407" lon="-49.1246317"><ele>239.0</ele><time>2026-04-15T16:59:23.083Z</time></trkpt><trkpt lat="-28.1340483" lon="-49.1244533"><ele>239.25</ele><time>2026-04-15T16:59:24.083Z</time></trkpt><trkpt lat="-28.134035" lon="-49.1242967"><ele>239.5</ele><time>2026-04-15T16:59:25.082Z</time></trkpt><trkpt lat="-28.1340283" lon="-49.1241483"><ele>239.75</ele><time>2026-04-15T16:59:26.083Z</time></trkpt><trkpt lat="-28.1340467" lon="-49.1240133"><ele>240.0</ele><time>2026-04-15T16:59:27.083Z</time></trkpt><trkpt lat="-28.13407" lon="-49.1238767"><ele>237.5</ele><time>2026-04-15T16:59:28.082Z</time></trkpt><trkpt lat="-28.1341117" lon="-49.12375"><ele>235.0</ele><time>2026-04-15T16:59:29.083Z</time></trkpt><trkpt lat="-28.1341533" lon="-49.12363"><ele>232.5</ele><time>2026-04-15T16:59:30.083Z</time></trkpt><trkpt lat="-28.13421" lon="-49.123505"><ele>230.0</ele><time>2026-04-15T16:59:31.083Z</time></trkpt><trkpt lat="-28.1342633" lon="-49.1233867"><ele>230.0</ele><time>2026-04-15T16:59:32.083Z</time></trkpt><trkpt lat="-28.1343183" lon="-49.1232717"><ele>230.0</ele><time>2026-04-15T16:59:33.083Z</time></trkpt><trkpt lat="-28.1343783" lon="-49.1231783"><ele>230.0</ele><time>2026-04-15T16:59:34.083Z</time></trkpt><trkpt lat="-28.1344583" lon="-49.1230883"><ele>230.0</ele><time>2026-04-15T16:59:35.083Z</time></trkpt><trkpt lat="-28.13456" lon="-49.12301"><ele>226.75</ele><time>2026-04-15T16:59:36.083Z</time></trkpt><trkpt lat="-28.134675" lon="-49.1229333"><ele>223.5</ele><time>2026-04-15T16:59:37.083Z</time></trkpt><trkpt lat="-28.1347967" lon="-49.12286"><ele>220.25</ele><time>2026-04-15T16:59:38.083Z</time></trkpt><trkpt lat="-28.134935" lon="-49.1227933"><ele>217.0</ele><time>2026-04-15T16:59:39.083Z</time></trkpt><trkpt lat="-28.1350783" lon="-49.12273"><ele>217.0</ele><time>2026-04-15T16:59:40.083Z</time></trkpt><trkpt lat="-28.1352033" lon="-49.1226567"><ele>217.0</ele><time>2026-04-15T16:59:41.083Z</time></trkpt><trkpt lat="-28.1353283" lon="-49.1225767"><ele>217.0</ele><time>2026-04-15T16:59:42.083Z</time></trkpt><trkpt lat="-28.1354383" lon="-49.1224983"><ele>217.0</ele><time>2026-04-15T16:59:43.083Z</time></trkpt><trkpt lat="-28.1355383" lon="-49.1223967"><ele>213.25</ele><time>2026-04-15T16:59:44.083Z</time></trkpt><trkpt lat="-28.1356283" lon="-49.1222817"><ele>209.5</ele><time>2026-04-15T16:59:45.083Z</time></trkpt><trkpt lat="-28.1357167" lon="-49.1221733"><ele>205.75</ele><time>2026-04-15T16:59:46.082Z</time></trkpt><trkpt lat="-28.1357933" lon="-49.1220733"><ele>202.0</ele><time>2026-04-15T16:59:47.083Z</time></trkpt><trkpt lat="-28.1358733" lon="-49.1219733"><ele>202.0</ele><time>2026-04-15T16:59:48.083Z</time></trkpt><trkpt lat="-28.1359533" lon="-49.121885"><ele>202.0</ele><time>2026-04-15T16:59:49.083Z</time></trkpt><trkpt lat="-28.1360283" lon="-49.12181"><ele>202.0</ele><time>2026-04-15T16:59:50.082Z</time></trkpt><trkpt lat="-28.1361" lon="-49.1217183"><ele>202.0</ele><time>2026-04-15T16:59:51.083Z</time></trkpt><trkpt lat="-28.13617" lon="-49.1216233"><ele>202.0</ele><time>2026-04-15T16:59:52.083Z</time></trkpt><trkpt lat="-28.1362433" lon="-49.121525"><ele>196.0</ele><time>2026-04-15T16:59:53.083Z</time></trkpt><trkpt lat="-28.1363133" lon="-49.1214183"><ele>190.0</ele><time>2026-04-15T16:59:54.083Z</time></trkpt><trkpt lat="-28.1363733" lon="-49.1213017"><ele>184.0</ele><time>2026-04-15T16:59:55.082Z</time></trkpt><trkpt lat="-28.1364233" lon="-49.1211817"><ele>178.0</ele><time>2026-04-15T16:59:56.083Z</time></trkpt><trkpt lat="-28.1364817" lon="-49.1210683"><ele>178.0</ele><time>2026-04-15T16:59:57.083Z</time></trkpt><trkpt lat="-28.1365483" lon="-49.1209683"><ele>178.0</ele><time>2026-04-15T16:59:58.083Z</time></trkpt><trkpt lat="-28.1366317" lon="-49.120885"><ele>178.0</ele><time>2026-04-15T16:59:59.083Z</time></trkpt><trkpt lat="-28.1367267" lon="-49.1208183"><ele>178.0</ele><time>2026-04-15T17:00:00.083Z</time></trkpt><trkpt lat="-28.13684" lon="-49.1207717"><ele>172.5</ele><time>2026-04-15T17:00:01.083Z</time></trkpt><trkpt lat="-28.1369633" lon="-49.120725"><ele>167.0</ele><time>2026-04-15T17:00:02.083Z</time></trkpt><trkpt lat="-28.1371" lon="-49.12071"><ele>161.5</ele><time>2026-04-15T17:00:03.083Z</time></trkpt><trkpt lat="-28.137225" lon="-49.1206717"><ele>156.0</ele><time>2026-04-15T17:00:04.083Z</time></trkpt><trkpt lat="-28.1373517" lon="-49.1206317"><ele>155.0</ele><time>2026-04-15T17:00:05.083Z</time></trkpt><trkpt lat="-28.13748" lon="-49.1206067"><ele>154.0</ele><time>2026-04-15T17:00:06.083Z</time></trkpt><trkpt lat="-28.1376133" lon="-49.1205917"><ele>153.0</ele><time>2026-04-15T17:00:07.083Z</time></trkpt><trkpt lat="-28.1377383" lon="-49.1206"><ele>152.0</ele><time>2026-04-15T17:00:08.083Z</time></trkpt><trkpt lat="-28.1378667" lon="-49.1206117"><ele>152.0</ele><time>2026-04-15T17:00:09.083Z</time></trkpt><trkpt lat="-28.13798" lon="-49.1206517"><ele>152.0</ele><time>2026-04-15T17:00:10.083Z</time></trkpt><trkpt lat="-28.1380933" lon="-49.1207233"><ele>152.0</ele><time>2026-04-15T17:00:11.083Z</time></trkpt><trkpt lat="-28.13821" lon="-49.12081"><ele>152.0</ele><time>2026-04-15T17:00:12.083Z</time></trkpt><trkpt lat="-28.13833" lon="-49.1208783"><ele>154.75</ele><time>2026-04-15T17:00:13.083Z</time></trkpt><trkpt lat="-28.138455" lon="-49.120935"><ele>157.5</ele><time>2026-04-15T17:00:14.083Z</time></trkpt><trkpt lat="-28.1385683" lon="-49.12096"><ele>160.25</ele><time>2026-04-15T17:00:15.083Z</time></trkpt><trkpt lat="-28.138675" lon="-49.12097"><ele>163.0</ele><time>2026-04-15T17:00:16.082Z</time></trkpt><trkpt lat="-28.13878" lon="-49.12096"><ele>163.0</ele><time>2026-04-15T17:00:17.083Z</time></trkpt><trkpt lat="-28.1388633" lon="-49.1209333"><ele>163.0</ele><time>2026-04-15T17:00:18.082Z</time></trkpt><trkpt lat="-28.13894" lon="-49.1209033"><ele>163.0</ele><time>2026-04-15T17:00:19.083Z</time></trkpt><trkpt lat="-28.13902" lon="-49.120875"><ele>163.0</ele><time>2026-04-15T17:00:20.083Z</time></trkpt><trkpt lat="-28.1390983" lon="-49.120855"><ele>163.0</ele><time>2026-04-15T17:00:21.083Z</time></trkpt><trkpt lat="-28.1391733" lon="-49.1208367"><ele>163.0</ele><time>2026-04-15T17:00:22.083Z</time></trkpt><trkpt lat="-28.1392467" lon="-49.1208217"><ele>160.0</ele><time>2026-04-15T17:00:23.083Z</time></trkpt><trkpt lat="-28.13932" lon="-49.120805"><ele>157.0</ele><time>2026-04-15T17:00:24.083Z</time></trkpt><trkpt lat="-28.1393967" lon="-49.1207817"><ele>154.0</ele><time>2026-04-15T17:00:25.083Z</time></trkpt><trkpt lat="-28.1394683" lon="-49.1207583"><ele>151.0</ele><time>2026-04-15T17:00:26.083Z</time></trkpt><trkpt lat="-28.1395433" lon="-49.120735"><ele>148.0</ele><time>2026-04-15T17:00:27.083Z</time></trkpt><trkpt lat="-28.1396183" lon="-49.1207067"><ele>145.0</ele><time>2026-04-15T17:00:28.083Z</time></trkpt><trkpt lat="-28.13969" lon="-49.1206817"><ele>142.66666666666669</ele><time>2026-04-15T17:00:29.083Z</time></trkpt><trkpt lat="-28.13977" lon="-49.1206433"><ele>140.33333333333334</ele><time>2026-04-15T17:00:30.082Z</time></trkpt><trkpt lat="-28.139835" lon="-49.1205767"><ele>138.0</ele><time>2026-04-15T17:00:31.083Z</time></trkpt><trkpt lat="-28.1398867" lon="-49.1204983"><ele>135.66666666666666</ele><time>2026-04-15T17:00:32.082Z</time></trkpt><trkpt lat="-28.1399183" lon="-49.1203967"><ele>133.33333333333331</ele><time>2026-04-15T17:00:33.083Z</time></trkpt><trkpt lat="-28.13993" lon="-49.120295"><ele>131.0</ele><time>2026-04-15T17:00:34.083Z</time></trkpt><trkpt lat="-28.1399417" lon="-49.1201883"><ele>129.8</ele><time>2026-04-15T17:00:35.083Z</time></trkpt><trkpt lat="-28.1399567" lon="-49.120075"><ele>128.6</ele><time>2026-04-15T17:00:36.083Z</time></trkpt><trkpt lat="-28.13997" lon="-49.1199667"><ele>127.4</ele><time>2026-04-15T17:00:37.083Z</time></trkpt><trkpt lat="-28.1399817" lon="-49.1198633"><ele>126.2</ele><time>2026-04-15T17:00:38.083Z</time></trkpt><trkpt lat="-28.1399967" lon="-49.11977"><ele>125.0</ele><time>2026-04-15T17:00:39.083Z</time></trkpt><trkpt lat="-28.1400167" lon="-49.1196733"><ele>124.14285714285714</ele><time>2026-04-15T17:00:40.082Z</time></trkpt><trkpt lat="-28.1400383" lon="-49.1195917"><ele>123.28571428571429</ele><time>2026-04-15T17:00:41.083Z</time></trkpt><trkpt lat="-28.1400583" lon="-49.1195167"><ele>122.42857142857143</ele><time>2026-04-15T17:00:42.083Z</time></trkpt><trkpt lat="-28.14008" lon="-49.1194467"><ele>121.57142857142857</ele><time>2026-04-15T17:00:43.083Z</time></trkpt><trkpt lat="-28.1401017" lon="-49.119375"><ele>120.71428571428572</ele><time>2026-04-15T17:00:44.083Z</time></trkpt><trkpt lat="-28.1401267" lon="-49.1193017"><ele>119.85714285714286</ele><time>2026-04-15T17:00:45.083Z</time></trkpt><trkpt lat="-28.1401467" lon="-49.1192283"><ele>119.0</ele><time>2026-04-15T17:00:46.083Z</time></trkpt><trkpt lat="-28.1401683" lon="-49.11914"><ele>117.83333333333333</ele><time>2026-04-15T17:00:47.083Z</time></trkpt><trkpt lat="-28.140185" lon="-49.1190417"><ele>116.66666666666666</ele><time>2026-04-15T17:00:48.083Z</time></trkpt><trkpt lat="-28.140185" lon="-49.1189383"><ele>115.5</ele><time>2026-04-15T17:00:49.083Z</time></trkpt><trkpt lat="-28.1401817" lon="-49.1188417"><ele>114.33333333333334</ele><time>2026-04-15T17:00:50.083Z</time></trkpt><trkpt lat="-28.14018" lon="-49.1187567"><ele>113.16666666666667</ele><time>2026-04-15T17:00:51.083Z</time></trkpt><trkpt lat="-28.1401717" lon="-49.1186667"><ele>112.0</ele><time>2026-04-15T17:00:52.083Z</time></trkpt><trkpt lat="-28.14016" lon="-49.1185767"><ele>112.0</ele><time>2026-04-15T17:00:53.083Z</time></trkpt><trkpt lat="-28.14015" lon="-49.118485"><ele>111.99999999999999</ele><time>2026-04-15T17:00:54.083Z</time></trkpt><trkpt lat="-28.1401483" lon="-49.1183733"><ele>111.99999999999999</ele><time>2026-04-15T17:00:56.083Z</time></trkpt><trkpt lat="-28.1401483" lon="-49.118285"><ele>112.0</ele><time>2026-04-15T17:01:09.083Z</time></trkpt><trkpt lat="-28.1400867" lon="-49.1181133"><ele>112.0</ele><time>2026-04-15T17:01:11.083Z</time></trkpt><trkpt lat="-28.1400567" lon="-49.11798"><ele>112.25</ele><time>2026-04-15T17:01:12.083Z</time></trkpt><trkpt lat="-28.1400217" lon="-49.1178383"><ele>112.5</ele><time>2026-04-15T17:01:13.083Z</time></trkpt><trkpt lat="-28.1399867" lon="-49.1176933"><ele>112.75</ele><time>2026-04-15T17:01:14.083Z</time></trkpt><trkpt lat="-28.1399517" lon="-49.117545"><ele>113.0</ele><time>2026-04-15T17:01:15.083Z</time></trkpt><trkpt lat="-28.139915" lon="-49.1173917"><ele>115.25</ele><time>2026-04-15T17:01:16.083Z</time></trkpt><trkpt lat="-28.1398833" lon="-49.117245"><ele>117.5</ele><time>2026-04-15T17:01:17.083Z</time></trkpt><trkpt lat="-28.1398533" lon="-49.11709"><ele>119.75</ele><time>2026-04-15T17:01:18.083Z</time></trkpt><trkpt lat="-28.1398267" lon="-49.1169367"><ele>122.0</ele><time>2026-04-15T17:01:19.083Z</time></trkpt><trkpt lat="-28.1398" lon="-49.116785"><ele>122.0</ele><time>2026-04-15T17:01:20.083Z</time></trkpt><trkpt lat="-28.13978" lon="-49.1166283"><ele>122.0</ele><time>2026-04-15T17:01:21.083Z</time></trkpt><trkpt lat="-28.1397633" lon="-49.1164933"><ele>122.0</ele><time>2026-04-15T17:01:22.083Z</time></trkpt><trkpt lat="-28.139745" lon="-49.1163667"><ele>122.0</ele><time>2026-04-15T17:01:23.083Z</time></trkpt><trkpt lat="-28.1397283" lon="-49.1162433"><ele>121.99999999999999</ele><time>2026-04-15T17:01:24.083Z</time></trkpt><trkpt lat="-28.1397167" lon="-49.116125"><ele>122.0</ele><time>2026-04-15T17:01:25.083Z</time></trkpt><trkpt lat="-28.1397117" lon="-49.1160233"><ele>122.0</ele><time>2026-04-15T17:01:26.083Z</time></trkpt><trkpt lat="-28.1397067" lon="-49.1159333"><ele>122.0</ele><time>2026-04-15T17:01:27.083Z</time></trkpt><trkpt lat="-28.1396983" lon="-49.1158533"><ele>121.99999999999999</ele><time>2026-04-15T17:01:28.083Z</time></trkpt><trkpt lat="-28.1397083" lon="-49.1157583"><ele>122.0</ele><time>2026-04-15T17:01:30.083Z</time></trkpt><trkpt lat="-28.1397717" lon="-49.1157083"><ele>122.0</ele><time>2026-04-15T17:01:32.082Z</time></trkpt><trkpt lat="-28.139915" lon="-49.1157633"><ele>122.0</ele><time>2026-04-15T17:01:34.083Z</time></trkpt><trkpt lat="-28.1400183" lon="-49.115805"><ele>122.0</ele><time>2026-04-15T17:01:35.083Z</time></trkpt><trkpt lat="-28.1401217" lon="-49.1158383"><ele>122.0</ele><time>2026-04-15T17:01:36.083Z</time></trkpt><trkpt lat="-28.140245" lon="-49.115875"><ele>122.0</ele><time>2026-04-15T17:01:37.083Z</time></trkpt><trkpt lat="-28.140375" lon="-49.1159167"><ele>122.0</ele><time>2026-04-15T17:01:38.083Z</time></trkpt><trkpt lat="-28.1405033" lon="-49.1159583"><ele>122.0</ele><time>2026-04-15T17:01:39.083Z</time></trkpt><trkpt lat="-28.1406317" lon="-49.1160033"><ele>122.0</ele><time>2026-04-15T17:01:40.083Z</time></trkpt><trkpt lat="-28.1407483" lon="-49.1160383"><ele>121.8</ele><time>2026-04-15T17:01:41.083Z</time></trkpt><trkpt lat="-28.1408517" lon="-49.1160683"><ele>121.6</ele><time>2026-04-15T17:01:42.083Z</time></trkpt><trkpt lat="-28.14095" lon="-49.1160967"><ele>121.39999999999999</ele><time>2026-04-15T17:01:43.083Z</time></trkpt><trkpt lat="-28.1410333" lon="-49.116115"><ele>121.19999999999999</ele><time>2026-04-15T17:01:44.083Z</time></trkpt><trkpt lat="-28.1411017" lon="-49.1161333"><ele>121.0</ele><time>2026-04-15T17:01:45.083Z</time></trkpt><trkpt lat="-28.1411983" lon="-49.11614"><ele>121.0</ele><time>2026-04-15T17:01:47.083Z</time></trkpt><trkpt lat="-28.1412967" lon="-49.1161417"><ele>121.0</ele><time>2026-04-15T17:01:49.082Z</time></trkpt><trkpt lat="-28.14134" lon="-49.1160683"><ele>121.0</ele><time>2026-04-15T17:01:51.083Z</time></trkpt><trkpt lat="-28.1413017" lon="-49.1159467"><ele>121.0</ele><time>2026-04-15T17:01:53.083Z</time></trkpt><trkpt lat="-28.1412467" lon="-49.115865"><ele>121.0</ele><time>2026-04-15T17:01:54.083Z</time></trkpt><trkpt lat="-28.1411817" lon="-49.115755"><ele>120.5</ele><time>2026-04-15T17:01:55.083Z</time></trkpt><trkpt lat="-28.141115" lon="-49.115635"><ele>120.0</ele><time>2026-04-15T17:01:56.083Z</time></trkpt><trkpt lat="-28.1410483" lon="-49.1155083"><ele>119.5</ele><time>2026-04-15T17:01:57.083Z</time></trkpt><trkpt lat="-28.1409733" lon="-49.115385"><ele>119.0</ele><time>2026-04-15T17:01:58.083Z</time></trkpt><trkpt lat="-28.1408917" lon="-49.1152533"><ele>119.0</ele><time>2026-04-15T17:01:59.083Z</time></trkpt><trkpt lat="-28.1408117" lon="-49.1151183"><ele>119.0</ele><time>2026-04-15T17:02:00.083Z</time></trkpt><trkpt lat="-28.14074" lon="-49.1150067"><ele>119.0</ele><time>2026-04-15T17:02:01.083Z</time></trkpt><trkpt lat="-28.1406767" lon="-49.1149067"><ele>119.0</ele><time>2026-04-15T17:02:02.083Z</time></trkpt><trkpt lat="-28.14062" lon="-49.1148033"><ele>118.66666666666666</ele><time>2026-04-15T17:02:03.083Z</time></trkpt><trkpt lat="-28.1405667" lon="-49.114705"><ele>118.33333333333333</ele><time>2026-04-15T17:02:04.083Z</time></trkpt><trkpt lat="-28.1405133" lon="-49.1146183"><ele>118.0</ele><time>2026-04-15T17:02:05.082Z</time></trkpt><trkpt lat="-28.1404667" lon="-49.1145417"><ele>117.66666666666666</ele><time>2026-04-15T17:02:06.083Z</time></trkpt><trkpt lat="-28.1404283" lon="-49.1144767"><ele>117.33333333333333</ele><time>2026-04-15T17:02:07.083Z</time></trkpt><trkpt lat="-28.1403633" lon="-49.1143917"><ele>117.0</ele><time>2026-04-15T17:02:09.083Z</time></trkpt><trkpt lat="-28.1402867" lon="-49.1142783"><ele>117.0</ele><time>2026-04-15T17:02:11.083Z</time></trkpt><trkpt lat="-28.1402317" lon="-49.1141933"><ele>117.0</ele><time>2026-04-15T17:02:12.082Z</time></trkpt><trkpt lat="-28.1401633" lon="-49.114085"><ele>117.0</ele><time>2026-04-15T17:02:13.082Z</time></trkpt><trkpt lat="-28.1400883" lon="-49.1139617"><ele>117.0</ele><time>2026-04-15T17:02:14.083Z</time></trkpt><trkpt lat="-28.1400083" lon="-49.11382"><ele>117.33333333333334</ele><time>2026-04-15T17:02:15.083Z</time></trkpt><trkpt lat="-28.1399217" lon="-49.113675"><ele>117.66666666666667</ele><time>2026-04-15T17:02:16.083Z</time></trkpt><trkpt lat="-28.13983" lon="-49.1135267"><ele>118.0</ele><time>2026-04-15T17:02:17.083Z</time></trkpt><trkpt lat="-28.13975" lon="-49.1133967"><ele>118.25</ele><time>2026-04-15T17:02:18.083Z</time></trkpt><trkpt lat="-28.139685" lon="-49.11328"><ele>118.5</ele><time>2026-04-15T17:02:19.083Z</time></trkpt><trkpt lat="-28.1396167" lon="-49.1131717"><ele>118.75</ele><time>2026-04-15T17:02:20.083Z</time></trkpt><trkpt lat="-28.1395517" lon="-49.11306"><ele>119.0</ele><time>2026-04-15T17:02:21.083Z</time></trkpt><trkpt lat="-28.1394917" lon="-49.1129583"><ele>120.2</ele><time>2026-04-15T17:02:22.082Z</time></trkpt><trkpt lat="-28.1394383" lon="-49.112865"><ele>121.4</ele><time>2026-04-15T17:02:23.083Z</time></trkpt><trkpt lat="-28.13938" lon="-49.112785"><ele>122.6</ele><time>2026-04-15T17:02:24.083Z</time></trkpt><trkpt lat="-28.1393217" lon="-49.1126917"><ele>123.8</ele><time>2026-04-15T17:02:25.082Z</time></trkpt><trkpt lat="-28.13926" lon="-49.112585"><ele>125.0</ele><time>2026-04-15T17:02:26.082Z</time></trkpt><trkpt lat="-28.1391983" lon="-49.1124633"><ele>125.75</ele><time>2026-04-15T17:02:27.082Z</time></trkpt><trkpt lat="-28.139125" lon="-49.1123383"><ele>126.5</ele><time>2026-04-15T17:02:28.082Z</time></trkpt><trkpt lat="-28.1390433" lon="-49.1122017"><ele>127.25</ele><time>2026-04-15T17:02:29.082Z</time></trkpt><trkpt lat="-28.1389733" lon="-49.1120717"><ele>128.0</ele><time>2026-04-15T17:02:30.082Z</time></trkpt><trkpt lat="-28.1389033" lon="-49.1119517"><ele>126.4</ele><time>2026-04-15T17:02:31.081Z</time></trkpt><trkpt lat="-28.1388367" lon="-49.111845"><ele>124.80000000000001</ele><time>2026-04-15T17:02:32.082Z</time></trkpt><trkpt lat="-28.1387767" lon="-49.11175"><ele>123.2</ele><time>2026-04-15T17:02:33.082Z</time></trkpt><trkpt lat="-28.1387233" lon="-49.1116667"><ele>121.6</ele><time>2026-04-15T17:02:34.082Z</time></trkpt><trkpt lat="-28.1386733" lon="-49.111585"><ele>120.0</ele><time>2026-04-15T17:02:35.081Z</time></trkpt><trkpt lat="-28.1386233" lon="-49.111495"><ele>119.25</ele><time>2026-04-15T17:02:36.082Z</time></trkpt><trkpt lat="-28.1385567" lon="-49.1113833"><ele>118.5</ele><time>2026-04-15T17:02:37.081Z</time></trkpt><trkpt lat="-28.138475" lon="-49.1112533"><ele>117.75</ele><time>2026-04-15T17:02:38.082Z</time></trkpt><trkpt lat="-28.1383733" lon="-49.11109"><ele>117.0</ele><time>2026-04-15T17:02:39.081Z</time></trkpt><trkpt lat="-28.1382783" lon="-49.11093"><ele>116.75</ele><time>2026-04-15T17:02:40.082Z</time></trkpt><trkpt lat="-28.1381883" lon="-49.1107817"><ele>116.5</ele><time>2026-04-15T17:02:41.082Z</time></trkpt><trkpt lat="-28.1381067" lon="-49.1106417"><ele>116.25</ele><time>2026-04-15T17:02:42.082Z</time></trkpt><trkpt lat="-28.1380383" lon="-49.1105217"><ele>116.0</ele><time>2026-04-15T17:02:43.082Z</time></trkpt><trkpt lat="-28.13798" lon="-49.1104133"><ele>116.0</ele><time>2026-04-15T17:02:44.082Z</time></trkpt><trkpt lat="-28.1379233" lon="-49.110305"><ele>116.0</ele><time>2026-04-15T17:02:45.082Z</time></trkpt><trkpt lat="-28.137865" lon="-49.1101933"><ele>116.0</ele><time>2026-04-15T17:02:46.081Z</time></trkpt><trkpt lat="-28.1377983" lon="-49.1100767"><ele>116.0</ele><time>2026-04-15T17:02:47.082Z</time></trkpt><trkpt lat="-28.137725" lon="-49.1099533"><ele>115.75</ele><time>2026-04-15T17:02:48.082Z</time></trkpt><trkpt lat="-28.1376467" lon="-49.1098267"><ele>115.5</ele><time>2026-04-15T17:02:49.082Z</time></trkpt><trkpt lat="-28.1375717" lon="-49.1097033"><ele>115.25</ele><time>2026-04-15T17:02:50.082Z</time></trkpt><trkpt lat="-28.1374983" lon="-49.1095833"><ele>115.0</ele><time>2026-04-15T17:02:51.082Z</time></trkpt><trkpt lat="-28.1374233" lon="-49.1094717"><ele>115.25</ele><time>2026-04-15T17:02:52.082Z</time></trkpt><trkpt lat="-28.1373483" lon="-49.109365"><ele>115.5</ele><time>2026-04-15T17:02:53.082Z</time></trkpt><trkpt lat="-28.137285" lon="-49.10926"><ele>115.75</ele><time>2026-04-15T17:02:54.082Z</time></trkpt><trkpt lat="-28.1372233" lon="-49.1091633"><ele>116.0</ele><time>2026-04-15T17:02:55.082Z</time></trkpt><trkpt lat="-28.1371617" lon="-49.1090483"><ele>116.0</ele><time>2026-04-15T17:02:56.082Z</time></trkpt><trkpt lat="-28.1370867" lon="-49.10893"><ele>116.0</ele><time>2026-04-15T17:02:57.081Z</time></trkpt><trkpt lat="-28.1370067" lon="-49.1087917"><ele>116.0</ele><time>2026-04-15T17:02:58.082Z</time></trkpt><trkpt lat="-28.1369267" lon="-49.1086517"><ele>116.0</ele><time>2026-04-15T17:02:59.082Z</time></trkpt><trkpt lat="-28.1368483" lon="-49.108515"><ele>116.0</ele><time>2026-04-15T17:03:00.082Z</time></trkpt><trkpt lat="-28.136765" lon="-49.1083817"><ele>116.0</ele><time>2026-04-15T17:03:01.082Z</time></trkpt><trkpt lat="-28.1366867" lon="-49.1082517"><ele>116.0</ele><time>2026-04-15T17:03:02.081Z</time></trkpt><trkpt lat="-28.1366083" lon="-49.1081233"><ele>116.0</ele><time>2026-04-15T17:03:03.082Z</time></trkpt><trkpt lat="-28.1365417" lon="-49.1080067"><ele>116.4</ele><time>2026-04-15T17:03:04.082Z</time></trkpt><trkpt lat="-28.1364833" lon="-49.1078967"><ele>116.8</ele><time>2026-04-15T17:03:05.082Z</time></trkpt><trkpt lat="-28.1364333" lon="-49.1078133"><ele>117.20000000000002</ele><time>2026-04-15T17:03:06.082Z</time></trkpt><trkpt lat="-28.1363917" lon="-49.107725"><ele>117.60000000000001</ele><time>2026-04-15T17:03:07.082Z</time></trkpt><trkpt lat="-28.13634" lon="-49.10763"><ele>118.0</ele><time>2026-04-15T17:03:08.082Z</time></trkpt><trkpt lat="-28.1362733" lon="-49.10753"><ele>118.0</ele><time>2026-04-15T17:03:09.082Z</time></trkpt><trkpt lat="-28.136205" lon="-49.107415"><ele>118.0</ele><time>2026-04-15T17:03:10.082Z</time></trkpt><trkpt lat="-28.1361283" lon="-49.107285"><ele>118.0</ele><time>2026-04-15T17:03:11.082Z</time></trkpt><trkpt lat="-28.13604" lon="-49.1071517"><ele>118.0</ele><time>2026-04-15T17:03:12.082Z</time></trkpt><trkpt lat="-28.135945" lon="-49.106995"><ele>120.0</ele><time>2026-04-15T17:03:13.082Z</time></trkpt><trkpt lat="-28.1358517" lon="-49.1068433"><ele>122.0</ele><time>2026-04-15T17:03:14.081Z</time></trkpt><trkpt lat="-28.1357633" lon="-49.1066917"><ele>124.0</ele><time>2026-04-15T17:03:15.082Z</time></trkpt><trkpt lat="-28.1356867" lon="-49.106555"><ele>125.25</ele><time>2026-04-15T17:03:16.081Z</time></trkpt><trkpt lat="-28.1356133" lon="-49.10643"><ele>126.5</ele><time>2026-04-15T17:03:17.082Z</time></trkpt><trkpt lat="-28.1355483" lon="-49.1063217"><ele>127.75</ele><time>2026-04-15T17:03:18.082Z</time></trkpt><trkpt lat="-28.1354867" lon="-49.1062233"><ele>129.0</ele><time>2026-04-15T17:03:19.082Z</time></trkpt><trkpt lat="-28.1354317" lon="-49.1061317"><ele>129.0</ele><time>2026-04-15T17:03:20.081Z</time></trkpt><trkpt lat="-28.13537" lon="-49.1060317"><ele>129.0</ele><time>2026-04-15T17:03:21.082Z</time></trkpt><trkpt lat="-28.1353017" lon="-49.1059183"><ele>129.0</ele><time>2026-04-15T17:03:22.082Z</time></trkpt><trkpt lat="-28.1352317" lon="-49.1057867"><ele>129.0</ele><time>2026-04-15T17:03:23.082Z</time></trkpt><trkpt lat="-28.1351567" lon="-49.1056483"><ele>130.75</ele><time>2026-04-15T17:03:24.082Z</time></trkpt><trkpt lat="-28.1350733" lon="-49.105505"><ele>132.5</ele><time>2026-04-15T17:03:25.082Z</time></trkpt><trkpt lat="-28.1349933" lon="-49.1053717"><ele>134.25</ele><time>2026-04-15T17:03:26.082Z</time></trkpt><trkpt lat="-28.13492" lon="-49.105245"><ele>136.0</ele><time>2026-04-15T17:03:27.082Z</time></trkpt><trkpt lat="-28.1348533" lon="-49.1051333"><ele>136.0</ele><time>2026-04-15T17:03:28.082Z</time></trkpt><trkpt lat="-28.1348" lon="-49.1050317"><ele>136.0</ele><time>2026-04-15T17:03:29.082Z</time></trkpt><trkpt lat="-28.13476" lon="-49.1049467"><ele>136.0</ele><time>2026-04-15T17:03:30.082Z</time></trkpt><trkpt lat="-28.13473" lon="-49.1048783"><ele>136.0</ele><time>2026-04-15T17:03:31.082Z</time></trkpt><trkpt lat="-28.1347033" lon="-49.10477"><ele>136.0</ele><time>2026-04-15T17:03:33.081Z</time></trkpt><trkpt lat="-28.1347683" lon="-49.104685"><ele>138.2</ele><time>2026-04-15T17:03:35.082Z</time></trkpt><trkpt lat="-28.1348517" lon="-49.1046483"><ele>140.39999999999998</ele><time>2026-04-15T17:03:36.082Z</time></trkpt><trkpt lat="-28.1349417" lon="-49.1045967"><ele>142.6</ele><time>2026-04-15T17:03:37.082Z</time></trkpt><trkpt lat="-28.1350417" lon="-49.1045267"><ele>144.79999999999998</ele><time>2026-04-15T17:03:38.082Z</time></trkpt><trkpt lat="-28.135135" lon="-49.1044517"><ele>147.0</ele><time>2026-04-15T17:03:39.082Z</time></trkpt><trkpt lat="-28.13522" lon="-49.104385"><ele>146.83333333333334</ele><time>2026-04-15T17:03:40.082Z</time></trkpt><trkpt lat="-28.1353017" lon="-49.1043233"><ele>146.66666666666666</ele><time>2026-04-15T17:03:41.082Z</time></trkpt><trkpt lat="-28.1353767" lon="-49.1042733"><ele>146.5</ele><time>2026-04-15T17:03:42.082Z</time></trkpt><trkpt lat="-28.1354417" lon="-49.104225"><ele>146.33333333333331</ele><time>2026-04-15T17:03:43.082Z</time></trkpt><trkpt lat="-28.1355" lon="-49.1041783"><ele>146.16666666666666</ele><time>2026-04-15T17:03:44.082Z</time></trkpt><trkpt lat="-28.1355567" lon="-49.1040933"><ele>146.0</ele><time>2026-04-15T17:03:46.081Z</time></trkpt><trkpt lat="-28.13554" lon="-49.10398"><ele>146.0</ele><time>2026-04-15T17:03:48.082Z</time></trkpt><trkpt lat="-28.1354917" lon="-49.10389"><ele>146.0</ele><time>2026-04-15T17:03:50.081Z</time></trkpt><trkpt lat="-28.1354533" lon="-49.10383"><ele>146.0</ele><time>2026-04-15T17:03:52.082Z</time></trkpt><trkpt lat="-28.1354033" lon="-49.1037667"><ele>146.0</ele><time>2026-04-15T17:03:55.082Z</time></trkpt><trkpt lat="-28.1353967" lon="-49.1038383"><ele>146.0</ele><time>2026-04-15T17:04:00.082Z</time></trkpt><trkpt lat="-28.1353767" lon="-49.1037633"><ele>146.0</ele><time>2026-04-15T17:05:15.082Z</time></trkpt><trkpt lat="-28.1353167" lon="-49.1036633"><ele>146.0</ele><time>2026-04-15T17:05:23.082Z</time></trkpt><trkpt lat="-28.13527" lon="-49.1036133"><ele>146.0</ele><time>2026-04-15T17:05:27.082Z</time></trkpt><trkpt lat="-28.1351833" lon="-49.10353"><ele>146.0</ele><time>2026-04-15T17:05:38.082Z</time></trkpt><trkpt lat="-28.1351295" lon="-49.1034824"><ele>146.0</ele><time>2026-04-15T17:05:44.082Z</time></trkpt><trkpt lat="-28.1351066" lon="-49.1034071"><ele>146.0</ele><time>2026-04-15T17:05:49.082Z</time></trkpt><trkpt lat="-28.135035" lon="-49.1034154"><ele>146.0</ele><time>2026-04-15T17:06:11.082Z</time></trkpt><trkpt lat="-28.1350162" lon="-49.1035008"><ele>146.0</ele><time>2026-04-15T17:06:19.082Z</time></trkpt></trkseg></trk></gpx>